<?xml version="1.0" encoding="UTF-8" standalone="no" ?>
<gpx xmlns="http://www.topografix.com/GPX/1/1" xmlns:xsi="http://www.w3.org/2001/XMLSchema-instance" xsi:schemaLocation="http://www.topografix.com/GPX/1/1 http://www.topografix.com/GPX/1/1/gpx.xsd" version="1.1" creator="VisuGPX - https://www.visugpx.com">
  <metadata>
    <name>Saintexpress</name>
  </metadata>
  <trk>
    <name><![CDATA[ASTL24_SaintéExpress_45km-18523698]]></name>
    <trkseg>
      <trkpt lat="45.5954" lon="4.56773">
        <ele>696</ele>
        <time>2024-11-15T14:57:12Z</time>
      </trkpt>
      <trkpt lat="45.59578" lon="4.5683">
        <ele>693</ele>
        <time>2024-11-15T14:57:40Z</time>
      </trkpt>
      <trkpt lat="45.59591" lon="4.56887">
        <ele>693</ele>
        <time>2024-11-15T14:58:01Z</time>
      </trkpt>
      <trkpt lat="45.59605" lon="4.5698">
        <ele>694</ele>
        <time>2024-11-15T14:58:34Z</time>
      </trkpt>
      <trkpt lat="45.59617" lon="4.57009">
        <ele>694</ele>
        <time>2024-11-15T14:58:46Z</time>
      </trkpt>
      <trkpt lat="45.59635" lon="4.57036">
        <ele>694</ele>
        <time>2024-11-15T14:58:59Z</time>
      </trkpt>
      <trkpt lat="45.59711" lon="4.57102">
        <ele>693</ele>
        <time>2024-11-15T14:59:43Z</time>
      </trkpt>
      <trkpt lat="45.59793" lon="4.57114">
        <ele>692</ele>
        <time>2024-11-15T15:00:24Z</time>
      </trkpt>
      <trkpt lat="45.5986" lon="4.57078">
        <ele>695</ele>
        <time>2024-11-15T15:01:00Z</time>
      </trkpt>
      <trkpt lat="45.59895" lon="4.57073">
        <ele>696</ele>
        <time>2024-11-15T15:01:18Z</time>
      </trkpt>
      <trkpt lat="45.59945" lon="4.57021">
        <ele>701</ele>
        <time>2024-11-15T15:01:49Z</time>
      </trkpt>
      <trkpt lat="45.59966" lon="4.57065">
        <ele>702</ele>
        <time>2024-11-15T15:02:07Z</time>
      </trkpt>
      <trkpt lat="45.59992" lon="4.57232">
        <ele>700</ele>
        <time>2024-11-15T15:03:07Z</time>
      </trkpt>
      <trkpt lat="45.60017" lon="4.57444">
        <ele>698</ele>
        <time>2024-11-15T15:04:23Z</time>
      </trkpt>
      <trkpt lat="45.60029" lon="4.57518">
        <ele>697</ele>
        <time>2024-11-15T15:04:49Z</time>
      </trkpt>
      <trkpt lat="45.60052" lon="4.57597">
        <ele>695</ele>
        <time>2024-11-15T15:05:19Z</time>
      </trkpt>
      <trkpt lat="45.60061" lon="4.57614">
        <ele>695</ele>
        <time>2024-11-15T15:05:27Z</time>
      </trkpt>
      <trkpt lat="45.60098" lon="4.57658">
        <ele>703</ele>
        <time>2024-11-15T15:05:51Z</time>
      </trkpt>
      <trkpt lat="45.60106" lon="4.57676">
        <ele>703</ele>
        <time>2024-11-15T15:05:58Z</time>
      </trkpt>
      <trkpt lat="45.60124" lon="4.57733">
        <ele>702</ele>
        <time>2024-11-15T15:06:20Z</time>
      </trkpt>
      <trkpt lat="45.60128" lon="4.5776">
        <ele>702</ele>
        <time>2024-11-15T15:06:30Z</time>
      </trkpt>
      <trkpt lat="45.60129" lon="4.57798">
        <ele>704</ele>
        <time>2024-11-15T15:06:43Z</time>
      </trkpt>
      <trkpt lat="45.60124" lon="4.57816">
        <ele>702</ele>
        <time>2024-11-15T15:06:50Z</time>
      </trkpt>
      <trkpt lat="45.60088" lon="4.57879">
        <ele>696</ele>
        <time>2024-11-15T15:07:18Z</time>
      </trkpt>
      <trkpt lat="45.60079" lon="4.57902">
        <ele>696</ele>
        <time>2024-11-15T15:07:28Z</time>
      </trkpt>
      <trkpt lat="45.60075" lon="4.57924">
        <ele>697</ele>
        <time>2024-11-15T15:07:36Z</time>
      </trkpt>
      <trkpt lat="45.60081" lon="4.5804">
        <ele>702</ele>
        <time>2024-11-15T15:08:16Z</time>
      </trkpt>
      <trkpt lat="45.6008" lon="4.5806">
        <ele>701</ele>
        <time>2024-11-15T15:08:23Z</time>
      </trkpt>
      <trkpt lat="45.60085" lon="4.58073">
        <ele>703</ele>
        <time>2024-11-15T15:08:28Z</time>
      </trkpt>
      <trkpt lat="45.6009" lon="4.58172">
        <ele>706</ele>
        <time>2024-11-15T15:09:03Z</time>
      </trkpt>
      <trkpt lat="45.60103" lon="4.58238">
        <ele>710</ele>
        <time>2024-11-15T15:09:27Z</time>
      </trkpt>
      <trkpt lat="45.60114" lon="4.58313">
        <ele>710</ele>
        <time>2024-11-15T15:09:54Z</time>
      </trkpt>
      <trkpt lat="45.60119" lon="4.58303">
        <ele>713</ele>
        <time>2024-11-15T15:09:58Z</time>
      </trkpt>
      <trkpt lat="45.60137" lon="4.58203">
        <ele>723</ele>
        <time>2024-11-15T15:10:35Z</time>
      </trkpt>
      <trkpt lat="45.60163" lon="4.58017">
        <ele>737</ele>
        <time>2024-11-15T15:11:41Z</time>
      </trkpt>
      <trkpt lat="45.6017" lon="4.57995">
        <ele>740</ele>
        <time>2024-11-15T15:11:49Z</time>
      </trkpt>
      <trkpt lat="45.6018" lon="4.57987">
        <ele>741</ele>
        <time>2024-11-15T15:11:55Z</time>
      </trkpt>
      <trkpt lat="45.60207" lon="4.57975">
        <ele>745</ele>
        <time>2024-11-15T15:12:09Z</time>
      </trkpt>
      <trkpt lat="45.60222" lon="4.5795">
        <ele>747</ele>
        <time>2024-11-15T15:12:21Z</time>
      </trkpt>
      <trkpt lat="45.60231" lon="4.57926">
        <ele>748</ele>
        <time>2024-11-15T15:12:30Z</time>
      </trkpt>
      <trkpt lat="45.60244" lon="4.57831">
        <ele>749</ele>
        <time>2024-11-15T15:13:04Z</time>
      </trkpt>
      <trkpt lat="45.6024" lon="4.57787">
        <ele>749</ele>
        <time>2024-11-15T15:13:20Z</time>
      </trkpt>
      <trkpt lat="45.60245" lon="4.57772">
        <ele>752</ele>
        <time>2024-11-15T15:13:26Z</time>
      </trkpt>
      <trkpt lat="45.60251" lon="4.57816">
        <ele>752</ele>
        <time>2024-11-15T15:13:41Z</time>
      </trkpt>
      <trkpt lat="45.60283" lon="4.57889">
        <ele>757</ele>
        <time>2024-11-15T15:14:11Z</time>
      </trkpt>
      <trkpt lat="45.60295" lon="4.57924">
        <ele>759</ele>
        <time>2024-11-15T15:14:25Z</time>
      </trkpt>
      <trkpt lat="45.60313" lon="4.57999">
        <ele>761</ele>
        <time>2024-11-15T15:14:53Z</time>
      </trkpt>
      <trkpt lat="45.60354" lon="4.58128">
        <ele>765</ele>
        <time>2024-11-15T15:15:42Z</time>
      </trkpt>
      <trkpt lat="45.60361" lon="4.58162">
        <ele>765</ele>
        <time>2024-11-15T15:15:55Z</time>
      </trkpt>
      <trkpt lat="45.60361" lon="4.58172">
        <ele>765</ele>
        <time>2024-11-15T15:15:58Z</time>
      </trkpt>
      <trkpt lat="45.60374" lon="4.58217">
        <ele>765</ele>
        <time>2024-11-15T15:16:15Z</time>
      </trkpt>
      <trkpt lat="45.60385" lon="4.58278">
        <ele>764</ele>
        <time>2024-11-15T15:16:37Z</time>
      </trkpt>
      <trkpt lat="45.60418" lon="4.58345">
        <ele>767</ele>
        <time>2024-11-15T15:17:06Z</time>
      </trkpt>
      <trkpt lat="45.60422" lon="4.58368">
        <ele>766</ele>
        <time>2024-11-15T15:17:14Z</time>
      </trkpt>
      <trkpt lat="45.60464" lon="4.58452">
        <ele>770</ele>
        <time>2024-11-15T15:17:51Z</time>
      </trkpt>
      <trkpt lat="45.60524" lon="4.58648">
        <ele>773</ele>
        <time>2024-11-15T15:19:06Z</time>
      </trkpt>
      <trkpt lat="45.60541" lon="4.5868">
        <ele>774</ele>
        <time>2024-11-15T15:19:20Z</time>
      </trkpt>
      <trkpt lat="45.60622" lon="4.58752">
        <ele>779</ele>
        <time>2024-11-15T15:20:07Z</time>
      </trkpt>
      <trkpt lat="45.60647" lon="4.58777">
        <ele>779</ele>
        <time>2024-11-15T15:20:23Z</time>
      </trkpt>
      <trkpt lat="45.60699" lon="4.58904">
        <ele>771</ele>
        <time>2024-11-15T15:21:14Z</time>
      </trkpt>
      <trkpt lat="45.60749" lon="4.58959">
        <ele>767</ele>
        <time>2024-11-15T15:21:46Z</time>
      </trkpt>
      <trkpt lat="45.60787" lon="4.58991">
        <ele>765</ele>
        <time>2024-11-15T15:22:08Z</time>
      </trkpt>
      <trkpt lat="45.60809" lon="4.58995">
        <ele>765</ele>
        <time>2024-11-15T15:22:19Z</time>
      </trkpt>
      <trkpt lat="45.60829" lon="4.59002">
        <ele>766</ele>
        <time>2024-11-15T15:22:29Z</time>
      </trkpt>
      <trkpt lat="45.60854" lon="4.59032">
        <ele>769</ele>
        <time>2024-11-15T15:22:45Z</time>
      </trkpt>
      <trkpt lat="45.60872" lon="4.59074">
        <ele>770</ele>
        <time>2024-11-15T15:23:03Z</time>
      </trkpt>
      <trkpt lat="45.60899" lon="4.59161">
        <ele>771</ele>
        <time>2024-11-15T15:23:36Z</time>
      </trkpt>
      <trkpt lat="45.60882" lon="4.5937">
        <ele>766</ele>
        <time>2024-11-15T15:24:50Z</time>
      </trkpt>
      <trkpt lat="45.60868" lon="4.59441">
        <ele>763</ele>
        <time>2024-11-15T15:25:16Z</time>
      </trkpt>
      <trkpt lat="45.60867" lon="4.59484">
        <ele>763</ele>
        <time>2024-11-15T15:25:31Z</time>
      </trkpt>
      <trkpt lat="45.60871" lon="4.59526">
        <ele>763</ele>
        <time>2024-11-15T15:25:45Z</time>
      </trkpt>
      <trkpt lat="45.60877" lon="4.59555">
        <ele>764</ele>
        <time>2024-11-15T15:25:56Z</time>
      </trkpt>
      <trkpt lat="45.60904" lon="4.59605">
        <ele>766</ele>
        <time>2024-11-15T15:26:18Z</time>
      </trkpt>
      <trkpt lat="45.60929" lon="4.59628">
        <ele>767</ele>
        <time>2024-11-15T15:26:33Z</time>
      </trkpt>
      <trkpt lat="45.6098" lon="4.59761">
        <ele>760</ele>
        <time>2024-11-15T15:27:26Z</time>
      </trkpt>
      <trkpt lat="45.60993" lon="4.59772">
        <ele>761</ele>
        <time>2024-11-15T15:27:34Z</time>
      </trkpt>
      <trkpt lat="45.61023" lon="4.59779">
        <ele>763</ele>
        <time>2024-11-15T15:27:49Z</time>
      </trkpt>
      <trkpt lat="45.61028" lon="4.59795">
        <ele>762</ele>
        <time>2024-11-15T15:27:55Z</time>
      </trkpt>
      <trkpt lat="45.61027" lon="4.59813">
        <ele>761</ele>
        <time>2024-11-15T15:28:01Z</time>
      </trkpt>
      <trkpt lat="45.61018" lon="4.59842">
        <ele>757</ele>
        <time>2024-11-15T15:28:12Z</time>
      </trkpt>
      <trkpt lat="45.61018" lon="4.59852">
        <ele>757</ele>
        <time>2024-11-15T15:28:16Z</time>
      </trkpt>
      <trkpt lat="45.61012" lon="4.5988">
        <ele>755</ele>
        <time>2024-11-15T15:28:26Z</time>
      </trkpt>
      <trkpt lat="45.61013" lon="4.59906">
        <ele>755</ele>
        <time>2024-11-15T15:28:35Z</time>
      </trkpt>
      <trkpt lat="45.61021" lon="4.5993">
        <ele>756</ele>
        <time>2024-11-15T15:28:45Z</time>
      </trkpt>
      <trkpt lat="45.61047" lon="4.59973">
        <ele>758</ele>
        <time>2024-11-15T15:29:04Z</time>
      </trkpt>
      <trkpt lat="45.61098" lon="4.60025">
        <ele>759</ele>
        <time>2024-11-15T15:29:36Z</time>
      </trkpt>
      <trkpt lat="45.6117" lon="4.60062">
        <ele>759</ele>
        <time>2024-11-15T15:30:14Z</time>
      </trkpt>
      <trkpt lat="45.61178" lon="4.60088">
        <ele>757</ele>
        <time>2024-11-15T15:30:24Z</time>
      </trkpt>
      <trkpt lat="45.6118" lon="4.60139">
        <ele>751</ele>
        <time>2024-11-15T15:30:42Z</time>
      </trkpt>
      <trkpt lat="45.61187" lon="4.60204">
        <ele>744</ele>
        <time>2024-11-15T15:31:05Z</time>
      </trkpt>
      <trkpt lat="45.61205" lon="4.60266">
        <ele>741</ele>
        <time>2024-11-15T15:31:28Z</time>
      </trkpt>
      <trkpt lat="45.61206" lon="4.60276">
        <ele>740</ele>
        <time>2024-11-15T15:31:32Z</time>
      </trkpt>
      <trkpt lat="45.61228" lon="4.60303">
        <ele>742</ele>
        <time>2024-11-15T15:31:47Z</time>
      </trkpt>
      <trkpt lat="45.61257" lon="4.60349">
        <ele>742</ele>
        <time>2024-11-15T15:32:08Z</time>
      </trkpt>
      <trkpt lat="45.6128" lon="4.60364">
        <ele>748</ele>
        <time>2024-11-15T15:32:21Z</time>
      </trkpt>
      <trkpt lat="45.61293" lon="4.60401">
        <ele>748</ele>
        <time>2024-11-15T15:32:35Z</time>
      </trkpt>
      <trkpt lat="45.61298" lon="4.60452">
        <ele>746</ele>
        <time>2024-11-15T15:32:53Z</time>
      </trkpt>
      <trkpt lat="45.61298" lon="4.60483">
        <ele>745</ele>
        <time>2024-11-15T15:33:04Z</time>
      </trkpt>
      <trkpt lat="45.61305" lon="4.60516">
        <ele>745</ele>
        <time>2024-11-15T15:33:16Z</time>
      </trkpt>
      <trkpt lat="45.61323" lon="4.60543">
        <ele>747</ele>
        <time>2024-11-15T15:33:29Z</time>
      </trkpt>
      <trkpt lat="45.61359" lon="4.60577">
        <ele>748</ele>
        <time>2024-11-15T15:33:51Z</time>
      </trkpt>
      <trkpt lat="45.614" lon="4.60581">
        <ele>752</ele>
        <time>2024-11-15T15:34:12Z</time>
      </trkpt>
      <trkpt lat="45.61415" lon="4.60587">
        <ele>752</ele>
        <time>2024-11-15T15:34:19Z</time>
      </trkpt>
      <trkpt lat="45.61439" lon="4.60584">
        <ele>754</ele>
        <time>2024-11-15T15:34:31Z</time>
      </trkpt>
      <trkpt lat="45.61452" lon="4.60589">
        <ele>754</ele>
        <time>2024-11-15T15:34:38Z</time>
      </trkpt>
      <trkpt lat="45.61458" lon="4.60588">
        <ele>755</ele>
        <time>2024-11-15T15:34:41Z</time>
      </trkpt>
      <trkpt lat="45.61469" lon="4.60575">
        <ele>758</ele>
        <time>2024-11-15T15:34:48Z</time>
      </trkpt>
      <trkpt lat="45.61476" lon="4.60574">
        <ele>759</ele>
        <time>2024-11-15T15:34:52Z</time>
      </trkpt>
      <trkpt lat="45.61489" lon="4.60587">
        <ele>757</ele>
        <time>2024-11-15T15:35:00Z</time>
      </trkpt>
      <trkpt lat="45.61497" lon="4.606">
        <ele>754</ele>
        <time>2024-11-15T15:35:06Z</time>
      </trkpt>
      <trkpt lat="45.61526" lon="4.60622">
        <ele>753</ele>
        <time>2024-11-15T15:35:22Z</time>
      </trkpt>
      <trkpt lat="45.61535" lon="4.60635">
        <ele>752</ele>
        <time>2024-11-15T15:35:29Z</time>
      </trkpt>
      <trkpt lat="45.61558" lon="4.60649">
        <ele>753</ele>
        <time>2024-11-15T15:35:41Z</time>
      </trkpt>
      <trkpt lat="45.61582" lon="4.60676">
        <ele>752</ele>
        <time>2024-11-15T15:35:56Z</time>
      </trkpt>
      <trkpt lat="45.61652" lon="4.60768">
        <ele>743</ele>
        <time>2024-11-15T15:36:44Z</time>
      </trkpt>
      <trkpt lat="45.61663" lon="4.6077">
        <ele>744</ele>
        <time>2024-11-15T15:36:50Z</time>
      </trkpt>
      <trkpt lat="45.61678" lon="4.60764">
        <ele>747</ele>
        <time>2024-11-15T15:36:57Z</time>
      </trkpt>
      <trkpt lat="45.61699" lon="4.60766">
        <ele>748</ele>
        <time>2024-11-15T15:37:08Z</time>
      </trkpt>
      <trkpt lat="45.61734" lon="4.60741">
        <ele>757</ele>
        <time>2024-11-15T15:37:27Z</time>
      </trkpt>
      <trkpt lat="45.61747" lon="4.60748">
        <ele>757</ele>
        <time>2024-11-15T15:37:34Z</time>
      </trkpt>
      <trkpt lat="45.61763" lon="4.60746">
        <ele>759</ele>
        <time>2024-11-15T15:37:42Z</time>
      </trkpt>
      <trkpt lat="45.61772" lon="4.60755">
        <ele>757</ele>
        <time>2024-11-15T15:37:48Z</time>
      </trkpt>
      <trkpt lat="45.61782" lon="4.6076">
        <ele>756</ele>
        <time>2024-11-15T15:37:53Z</time>
      </trkpt>
      <trkpt lat="45.61782" lon="4.60794">
        <ele>747</ele>
        <time>2024-11-15T15:38:05Z</time>
      </trkpt>
      <trkpt lat="45.61785" lon="4.6081">
        <ele>743</ele>
        <time>2024-11-15T15:38:11Z</time>
      </trkpt>
      <trkpt lat="45.61814" lon="4.60851">
        <ele>734</ele>
        <time>2024-11-15T15:38:31Z</time>
      </trkpt>
      <trkpt lat="45.61828" lon="4.60861">
        <ele>731</ele>
        <time>2024-11-15T15:38:39Z</time>
      </trkpt>
      <trkpt lat="45.61866" lon="4.60854">
        <ele>731</ele>
        <time>2024-11-15T15:38:58Z</time>
      </trkpt>
      <trkpt lat="45.61892" lon="4.60859">
        <ele>727</ele>
        <time>2024-11-15T15:39:11Z</time>
      </trkpt>
      <trkpt lat="45.61952" lon="4.6089">
        <ele>710</ele>
        <time>2024-11-15T15:39:43Z</time>
      </trkpt>
      <trkpt lat="45.61984" lon="4.60892">
        <ele>709</ele>
        <time>2024-11-15T15:39:59Z</time>
      </trkpt>
      <trkpt lat="45.62001" lon="4.60887">
        <ele>711</ele>
        <time>2024-11-15T15:40:08Z</time>
      </trkpt>
      <trkpt lat="45.62019" lon="4.60885">
        <ele>715</ele>
        <time>2024-11-15T15:40:17Z</time>
      </trkpt>
      <trkpt lat="45.62032" lon="4.60887">
        <ele>717</ele>
        <time>2024-11-15T15:40:24Z</time>
      </trkpt>
      <trkpt lat="45.62046" lon="4.60893">
        <ele>719</ele>
        <time>2024-11-15T15:40:31Z</time>
      </trkpt>
      <trkpt lat="45.62052" lon="4.6091">
        <ele>717</ele>
        <time>2024-11-15T15:40:38Z</time>
      </trkpt>
      <trkpt lat="45.62051" lon="4.60926">
        <ele>715</ele>
        <time>2024-11-15T15:40:43Z</time>
      </trkpt>
      <trkpt lat="45.62033" lon="4.60968">
        <ele>704</ele>
        <time>2024-11-15T15:41:01Z</time>
      </trkpt>
      <trkpt lat="45.61995" lon="4.61116">
        <ele>682</ele>
        <time>2024-11-15T15:41:56Z</time>
      </trkpt>
      <trkpt lat="45.61995" lon="4.61138">
        <ele>680</ele>
        <time>2024-11-15T15:42:03Z</time>
      </trkpt>
      <trkpt lat="45.61998" lon="4.61153">
        <ele>680</ele>
        <time>2024-11-15T15:42:09Z</time>
      </trkpt>
      <trkpt lat="45.62026" lon="4.61211">
        <ele>675</ele>
        <time>2024-11-15T15:42:34Z</time>
      </trkpt>
      <trkpt lat="45.62057" lon="4.61245">
        <ele>671</ele>
        <time>2024-11-15T15:42:53Z</time>
      </trkpt>
      <trkpt lat="45.62074" lon="4.61256">
        <ele>669</ele>
        <time>2024-11-15T15:43:02Z</time>
      </trkpt>
      <trkpt lat="45.6215" lon="4.61339">
        <ele>651</ele>
        <time>2024-11-15T15:43:50Z</time>
      </trkpt>
      <trkpt lat="45.62163" lon="4.6135">
        <ele>650</ele>
        <time>2024-11-15T15:43:58Z</time>
      </trkpt>
      <trkpt lat="45.62177" lon="4.61358">
        <ele>651</ele>
        <time>2024-11-15T15:44:05Z</time>
      </trkpt>
      <trkpt lat="45.62177" lon="4.61356">
        <ele>651</ele>
        <time>2024-11-15T15:44:06Z</time>
      </trkpt>
      <trkpt lat="45.62177" lon="4.61358">
        <ele>651</ele>
        <time>2024-11-15T15:44:07Z</time>
      </trkpt>
      <trkpt lat="45.62204" lon="4.61357">
        <ele>654</ele>
        <time>2024-11-15T15:44:20Z</time>
      </trkpt>
      <trkpt lat="45.62229" lon="4.61348">
        <ele>660</ele>
        <time>2024-11-15T15:44:33Z</time>
      </trkpt>
      <trkpt lat="45.62314" lon="4.61297">
        <ele>686</ele>
        <time>2024-11-15T15:45:19Z</time>
      </trkpt>
      <trkpt lat="45.62355" lon="4.61259">
        <ele>701</ele>
        <time>2024-11-15T15:45:44Z</time>
      </trkpt>
      <trkpt lat="45.62412" lon="4.6125">
        <ele>706</ele>
        <time>2024-11-15T15:46:12Z</time>
      </trkpt>
      <trkpt lat="45.62432" lon="4.61254">
        <ele>706</ele>
        <time>2024-11-15T15:46:23Z</time>
      </trkpt>
      <trkpt lat="45.62446" lon="4.6125">
        <ele>709</ele>
        <time>2024-11-15T15:46:30Z</time>
      </trkpt>
      <trkpt lat="45.62459" lon="4.61242">
        <ele>713</ele>
        <time>2024-11-15T15:46:37Z</time>
      </trkpt>
      <trkpt lat="45.6248" lon="4.61255">
        <ele>711</ele>
        <time>2024-11-15T15:46:48Z</time>
      </trkpt>
      <trkpt lat="45.62508" lon="4.61256">
        <ele>712</ele>
        <time>2024-11-15T15:47:02Z</time>
      </trkpt>
      <trkpt lat="45.62552" lon="4.61247">
        <ele>716</ele>
        <time>2024-11-15T15:47:25Z</time>
      </trkpt>
      <trkpt lat="45.62579" lon="4.61235">
        <ele>721</ele>
        <time>2024-11-15T15:47:39Z</time>
      </trkpt>
      <trkpt lat="45.62629" lon="4.61241">
        <ele>722</ele>
        <time>2024-11-15T15:48:04Z</time>
      </trkpt>
      <trkpt lat="45.62661" lon="4.6124">
        <ele>724</ele>
        <time>2024-11-15T15:48:20Z</time>
      </trkpt>
      <trkpt lat="45.62665" lon="4.61236">
        <ele>726</ele>
        <time>2024-11-15T15:48:22Z</time>
      </trkpt>
      <trkpt lat="45.62673" lon="4.6121">
        <ele>732</ele>
        <time>2024-11-15T15:48:32Z</time>
      </trkpt>
      <trkpt lat="45.62678" lon="4.61212">
        <ele>731</ele>
        <time>2024-11-15T15:48:35Z</time>
      </trkpt>
      <trkpt lat="45.62686" lon="4.61207">
        <ele>732</ele>
        <time>2024-11-15T15:48:39Z</time>
      </trkpt>
      <trkpt lat="45.62697" lon="4.61213">
        <ele>729</ele>
        <time>2024-11-15T15:48:45Z</time>
      </trkpt>
      <trkpt lat="45.62718" lon="4.61217">
        <ele>726</ele>
        <time>2024-11-15T15:48:56Z</time>
      </trkpt>
      <trkpt lat="45.62728" lon="4.61225">
        <ele>723</ele>
        <time>2024-11-15T15:49:01Z</time>
      </trkpt>
      <trkpt lat="45.62737" lon="4.61225">
        <ele>722</ele>
        <time>2024-11-15T15:49:06Z</time>
      </trkpt>
      <trkpt lat="45.6278" lon="4.61205">
        <ele>716</ele>
        <time>2024-11-15T15:49:29Z</time>
      </trkpt>
      <trkpt lat="45.62804" lon="4.61188">
        <ele>711</ele>
        <time>2024-11-15T15:49:42Z</time>
      </trkpt>
      <trkpt lat="45.62845" lon="4.61135">
        <ele>704</ele>
        <time>2024-11-15T15:50:10Z</time>
      </trkpt>
      <trkpt lat="45.62869" lon="4.61114">
        <ele>699</ele>
        <time>2024-11-15T15:50:24Z</time>
      </trkpt>
      <trkpt lat="45.62873" lon="4.61113">
        <ele>697</ele>
        <time>2024-11-15T15:50:26Z</time>
      </trkpt>
      <trkpt lat="45.62877" lon="4.61116">
        <ele>695</ele>
        <time>2024-11-15T15:50:28Z</time>
      </trkpt>
      <trkpt lat="45.62877" lon="4.61134">
        <ele>693</ele>
        <time>2024-11-15T15:50:34Z</time>
      </trkpt>
      <trkpt lat="45.62885" lon="4.61182">
        <ele>684</ele>
        <time>2024-11-15T15:50:52Z</time>
      </trkpt>
      <trkpt lat="45.62887" lon="4.61231">
        <ele>675</ele>
        <time>2024-11-15T15:51:09Z</time>
      </trkpt>
      <trkpt lat="45.62901" lon="4.61196">
        <ele>676</ele>
        <time>2024-11-15T15:51:23Z</time>
      </trkpt>
      <trkpt lat="45.62922" lon="4.61118">
        <ele>679</ele>
        <time>2024-11-15T15:51:52Z</time>
      </trkpt>
      <trkpt lat="45.62939" lon="4.61076">
        <ele>679</ele>
        <time>2024-11-15T15:52:09Z</time>
      </trkpt>
      <trkpt lat="45.62951" lon="4.61017">
        <ele>681</ele>
        <time>2024-11-15T15:52:31Z</time>
      </trkpt>
      <trkpt lat="45.62973" lon="4.60838">
        <ele>688</ele>
        <time>2024-11-15T15:53:34Z</time>
      </trkpt>
      <trkpt lat="45.6299" lon="4.60808">
        <ele>688</ele>
        <time>2024-11-15T15:53:48Z</time>
      </trkpt>
      <trkpt lat="45.63009" lon="4.60782">
        <ele>690</ele>
        <time>2024-11-15T15:54:01Z</time>
      </trkpt>
      <trkpt lat="45.63029" lon="4.60773">
        <ele>692</ele>
        <time>2024-11-15T15:54:11Z</time>
      </trkpt>
      <trkpt lat="45.63074" lon="4.60772">
        <ele>691</ele>
        <time>2024-11-15T15:54:34Z</time>
      </trkpt>
      <trkpt lat="45.63091" lon="4.60795">
        <ele>689</ele>
        <time>2024-11-15T15:54:46Z</time>
      </trkpt>
      <trkpt lat="45.63171" lon="4.60869">
        <ele>699</ele>
        <time>2024-11-15T15:55:33Z</time>
      </trkpt>
      <trkpt lat="45.63197" lon="4.6091">
        <ele>699</ele>
        <time>2024-11-15T15:55:53Z</time>
      </trkpt>
      <trkpt lat="45.6321" lon="4.60923">
        <ele>701</ele>
        <time>2024-11-15T15:56:01Z</time>
      </trkpt>
      <trkpt lat="45.63274" lon="4.61008">
        <ele>705</ele>
        <time>2024-11-15T15:56:44Z</time>
      </trkpt>
      <trkpt lat="45.63294" lon="4.61042">
        <ele>705</ele>
        <time>2024-11-15T15:57:00Z</time>
      </trkpt>
      <trkpt lat="45.63313" lon="4.61061">
        <ele>707</ele>
        <time>2024-11-15T15:57:11Z</time>
      </trkpt>
      <trkpt lat="45.63345" lon="4.61061">
        <ele>713</ele>
        <time>2024-11-15T15:57:27Z</time>
      </trkpt>
      <trkpt lat="45.63379" lon="4.61054">
        <ele>716</ele>
        <time>2024-11-15T15:57:45Z</time>
      </trkpt>
      <trkpt lat="45.63389" lon="4.61048">
        <ele>718</ele>
        <time>2024-11-15T15:57:50Z</time>
      </trkpt>
      <trkpt lat="45.63417" lon="4.61044">
        <ele>721</ele>
        <time>2024-11-15T15:58:04Z</time>
      </trkpt>
      <trkpt lat="45.63443" lon="4.61036">
        <ele>723</ele>
        <time>2024-11-15T15:58:17Z</time>
      </trkpt>
      <trkpt lat="45.63466" lon="4.61041">
        <ele>722</ele>
        <time>2024-11-15T15:58:29Z</time>
      </trkpt>
      <trkpt lat="45.63491" lon="4.61052">
        <ele>720</ele>
        <time>2024-11-15T15:58:42Z</time>
      </trkpt>
      <trkpt lat="45.63523" lon="4.61053">
        <ele>720</ele>
        <time>2024-11-15T15:58:58Z</time>
      </trkpt>
      <trkpt lat="45.63533" lon="4.61057">
        <ele>720</ele>
        <time>2024-11-15T15:59:03Z</time>
      </trkpt>
      <trkpt lat="45.63568" lon="4.61055">
        <ele>720</ele>
        <time>2024-11-15T15:59:21Z</time>
      </trkpt>
      <trkpt lat="45.63595" lon="4.61045">
        <ele>720</ele>
        <time>2024-11-15T15:59:35Z</time>
      </trkpt>
      <trkpt lat="45.63616" lon="4.61027">
        <ele>719</ele>
        <time>2024-11-15T15:59:47Z</time>
      </trkpt>
      <trkpt lat="45.63589" lon="4.60966">
        <ele>734</ele>
        <time>2024-11-15T16:00:12Z</time>
      </trkpt>
      <trkpt lat="45.63579" lon="4.60891">
        <ele>749</ele>
        <time>2024-11-15T16:00:39Z</time>
      </trkpt>
      <trkpt lat="45.63563" lon="4.60806">
        <ele>763</ele>
        <time>2024-11-15T16:01:10Z</time>
      </trkpt>
      <trkpt lat="45.63553" lon="4.60796">
        <ele>766</ele>
        <time>2024-11-15T16:01:16Z</time>
      </trkpt>
      <trkpt lat="45.63547" lon="4.60786">
        <ele>768</ele>
        <time>2024-11-15T16:01:21Z</time>
      </trkpt>
      <trkpt lat="45.63503" lon="4.60803">
        <ele>776</ele>
        <time>2024-11-15T16:01:43Z</time>
      </trkpt>
      <trkpt lat="45.63494" lon="4.60802">
        <ele>778</ele>
        <time>2024-11-15T16:01:48Z</time>
      </trkpt>
      <trkpt lat="45.63486" lon="4.60792">
        <ele>781</ele>
        <time>2024-11-15T16:01:53Z</time>
      </trkpt>
      <trkpt lat="45.63481" lon="4.60776">
        <ele>784</ele>
        <time>2024-11-15T16:01:59Z</time>
      </trkpt>
      <trkpt lat="45.63484" lon="4.60751">
        <ele>788</ele>
        <time>2024-11-15T16:02:08Z</time>
      </trkpt>
      <trkpt lat="45.63483" lon="4.60724">
        <ele>789</ele>
        <time>2024-11-15T16:02:18Z</time>
      </trkpt>
      <trkpt lat="45.63476" lon="4.60693">
        <ele>793</ele>
        <time>2024-11-15T16:02:29Z</time>
      </trkpt>
      <trkpt lat="45.63471" lon="4.60679">
        <ele>795</ele>
        <time>2024-11-15T16:02:35Z</time>
      </trkpt>
      <trkpt lat="45.6346" lon="4.60665">
        <ele>799</ele>
        <time>2024-11-15T16:02:42Z</time>
      </trkpt>
      <trkpt lat="45.6344" lon="4.60649">
        <ele>807</ele>
        <time>2024-11-15T16:02:53Z</time>
      </trkpt>
      <trkpt lat="45.6345" lon="4.60638">
        <ele>805</ele>
        <time>2024-11-15T16:03:00Z</time>
      </trkpt>
      <trkpt lat="45.6346" lon="4.60607">
        <ele>805</ele>
        <time>2024-11-15T16:03:12Z</time>
      </trkpt>
      <trkpt lat="45.63489" lon="4.60556">
        <ele>805</ele>
        <time>2024-11-15T16:03:35Z</time>
      </trkpt>
      <trkpt lat="45.63502" lon="4.60545">
        <ele>805</ele>
        <time>2024-11-15T16:03:42Z</time>
      </trkpt>
      <trkpt lat="45.63547" lon="4.60545">
        <ele>796</ele>
        <time>2024-11-15T16:04:05Z</time>
      </trkpt>
      <trkpt lat="45.63564" lon="4.60534">
        <ele>794</ele>
        <time>2024-11-15T16:04:14Z</time>
      </trkpt>
      <trkpt lat="45.63643" lon="4.60448">
        <ele>795</ele>
        <time>2024-11-15T16:05:04Z</time>
      </trkpt>
      <trkpt lat="45.63688" lon="4.60434">
        <ele>789</ele>
        <time>2024-11-15T16:05:27Z</time>
      </trkpt>
      <trkpt lat="45.63716" lon="4.60432">
        <ele>784</ele>
        <time>2024-11-15T16:05:41Z</time>
      </trkpt>
      <trkpt lat="45.63738" lon="4.60439">
        <ele>778</ele>
        <time>2024-11-15T16:05:52Z</time>
      </trkpt>
      <trkpt lat="45.63782" lon="4.60443">
        <ele>775</ele>
        <time>2024-11-15T16:06:14Z</time>
      </trkpt>
      <trkpt lat="45.63837" lon="4.60454">
        <ele>773</ele>
        <time>2024-11-15T16:06:42Z</time>
      </trkpt>
      <trkpt lat="45.63871" lon="4.60454">
        <ele>774</ele>
        <time>2024-11-15T16:06:59Z</time>
      </trkpt>
      <trkpt lat="45.63902" lon="4.6047">
        <ele>772</ele>
        <time>2024-11-15T16:07:15Z</time>
      </trkpt>
      <trkpt lat="45.63963" lon="4.60546">
        <ele>758</ele>
        <time>2024-11-15T16:07:56Z</time>
      </trkpt>
      <trkpt lat="45.63882" lon="4.60585">
        <ele>742</ele>
        <time>2024-11-15T16:08:39Z</time>
      </trkpt>
      <trkpt lat="45.63853" lon="4.60596">
        <ele>738</ele>
        <time>2024-11-15T16:08:54Z</time>
      </trkpt>
      <trkpt lat="45.63827" lon="4.60598">
        <ele>737</ele>
        <time>2024-11-15T16:09:07Z</time>
      </trkpt>
      <trkpt lat="45.63802" lon="4.60615">
        <ele>735</ele>
        <time>2024-11-15T16:09:21Z</time>
      </trkpt>
      <trkpt lat="45.63769" lon="4.60675">
        <ele>730</ele>
        <time>2024-11-15T16:09:47Z</time>
      </trkpt>
      <trkpt lat="45.63774" lon="4.60727">
        <ele>723</ele>
        <time>2024-11-15T16:10:06Z</time>
      </trkpt>
      <trkpt lat="45.63774" lon="4.60786">
        <ele>714</ele>
        <time>2024-11-15T16:10:26Z</time>
      </trkpt>
      <trkpt lat="45.63796" lon="4.60884">
        <ele>695</ele>
        <time>2024-11-15T16:11:02Z</time>
      </trkpt>
      <trkpt lat="45.63804" lon="4.60944">
        <ele>687</ele>
        <time>2024-11-15T16:11:24Z</time>
      </trkpt>
      <trkpt lat="45.63811" lon="4.6097">
        <ele>682</ele>
        <time>2024-11-15T16:11:33Z</time>
      </trkpt>
      <trkpt lat="45.63815" lon="4.61015">
        <ele>677</ele>
        <time>2024-11-15T16:11:49Z</time>
      </trkpt>
      <trkpt lat="45.63838" lon="4.61092">
        <ele>667</ele>
        <time>2024-11-15T16:12:19Z</time>
      </trkpt>
      <trkpt lat="45.6385" lon="4.61123">
        <ele>664</ele>
        <time>2024-11-15T16:12:31Z</time>
      </trkpt>
      <trkpt lat="45.63862" lon="4.61134">
        <ele>660</ele>
        <time>2024-11-15T16:12:38Z</time>
      </trkpt>
      <trkpt lat="45.63875" lon="4.61136">
        <ele>656</ele>
        <time>2024-11-15T16:12:45Z</time>
      </trkpt>
      <trkpt lat="45.63869" lon="4.61099">
        <ele>657</ele>
        <time>2024-11-15T16:12:58Z</time>
      </trkpt>
      <trkpt lat="45.63872" lon="4.61088">
        <ele>655</ele>
        <time>2024-11-15T16:13:02Z</time>
      </trkpt>
      <trkpt lat="45.63881" lon="4.61086">
        <ele>652</ele>
        <time>2024-11-15T16:13:07Z</time>
      </trkpt>
      <trkpt lat="45.6392" lon="4.61193">
        <ele>641</ele>
        <time>2024-11-15T16:13:49Z</time>
      </trkpt>
      <trkpt lat="45.6392" lon="4.61227">
        <ele>639</ele>
        <time>2024-11-15T16:14:01Z</time>
      </trkpt>
      <trkpt lat="45.63891" lon="4.61339">
        <ele>632</ele>
        <time>2024-11-15T16:14:43Z</time>
      </trkpt>
      <trkpt lat="45.63881" lon="4.61366">
        <ele>630</ele>
        <time>2024-11-15T16:14:53Z</time>
      </trkpt>
      <trkpt lat="45.63879" lon="4.61422">
        <ele>625</ele>
        <time>2024-11-15T16:15:13Z</time>
      </trkpt>
      <trkpt lat="45.63883" lon="4.61492">
        <ele>625</ele>
        <time>2024-11-15T16:15:37Z</time>
      </trkpt>
      <trkpt lat="45.63888" lon="4.6153">
        <ele>626</ele>
        <time>2024-11-15T16:15:51Z</time>
      </trkpt>
      <trkpt lat="45.63913" lon="4.61627">
        <ele>634</ele>
        <time>2024-11-15T16:16:27Z</time>
      </trkpt>
      <trkpt lat="45.63902" lon="4.61658">
        <ele>633</ele>
        <time>2024-11-15T16:16:39Z</time>
      </trkpt>
      <trkpt lat="45.6389" lon="4.61746">
        <ele>635</ele>
        <time>2024-11-15T16:17:11Z</time>
      </trkpt>
      <trkpt lat="45.63864" lon="4.61862">
        <ele>635</ele>
        <time>2024-11-15T16:17:53Z</time>
      </trkpt>
      <trkpt lat="45.63867" lon="4.61895">
        <ele>634</ele>
        <time>2024-11-15T16:18:05Z</time>
      </trkpt>
      <trkpt lat="45.63881" lon="4.61925">
        <ele>635</ele>
        <time>2024-11-15T16:18:18Z</time>
      </trkpt>
      <trkpt lat="45.63891" lon="4.61956">
        <ele>634</ele>
        <time>2024-11-15T16:18:30Z</time>
      </trkpt>
      <trkpt lat="45.63896" lon="4.61982">
        <ele>632</ele>
        <time>2024-11-15T16:18:39Z</time>
      </trkpt>
      <trkpt lat="45.63894" lon="4.62005">
        <ele>631</ele>
        <time>2024-11-15T16:18:47Z</time>
      </trkpt>
      <trkpt lat="45.63877" lon="4.62043">
        <ele>631</ele>
        <time>2024-11-15T16:19:03Z</time>
      </trkpt>
      <trkpt lat="45.63813" lon="4.62138">
        <ele>626</ele>
        <time>2024-11-15T16:19:49Z</time>
      </trkpt>
      <trkpt lat="45.63787" lon="4.62199">
        <ele>626</ele>
        <time>2024-11-15T16:20:14Z</time>
      </trkpt>
      <trkpt lat="45.63754" lon="4.62264">
        <ele>625</ele>
        <time>2024-11-15T16:20:42Z</time>
      </trkpt>
      <trkpt lat="45.63737" lon="4.62286">
        <ele>622</ele>
        <time>2024-11-15T16:20:54Z</time>
      </trkpt>
      <trkpt lat="45.6372" lon="4.6233">
        <ele>620</ele>
        <time>2024-11-15T16:21:11Z</time>
      </trkpt>
      <trkpt lat="45.63716" lon="4.62352">
        <ele>618</ele>
        <time>2024-11-15T16:21:19Z</time>
      </trkpt>
      <trkpt lat="45.63718" lon="4.62373">
        <ele>617</ele>
        <time>2024-11-15T16:21:27Z</time>
      </trkpt>
      <trkpt lat="45.6374" lon="4.62415">
        <ele>620</ele>
        <time>2024-11-15T16:21:45Z</time>
      </trkpt>
      <trkpt lat="45.63738" lon="4.62459">
        <ele>620</ele>
        <time>2024-11-15T16:22:00Z</time>
      </trkpt>
      <trkpt lat="45.63726" lon="4.62479">
        <ele>617</ele>
        <time>2024-11-15T16:22:10Z</time>
      </trkpt>
      <trkpt lat="45.63704" lon="4.625">
        <ele>613</ele>
        <time>2024-11-15T16:22:23Z</time>
      </trkpt>
      <trkpt lat="45.6369" lon="4.62509">
        <ele>611</ele>
        <time>2024-11-15T16:22:31Z</time>
      </trkpt>
      <trkpt lat="45.6368" lon="4.62555">
        <ele>613</ele>
        <time>2024-11-15T16:22:47Z</time>
      </trkpt>
      <trkpt lat="45.63669" lon="4.6258">
        <ele>612</ele>
        <time>2024-11-15T16:22:58Z</time>
      </trkpt>
      <trkpt lat="45.63627" lon="4.627">
        <ele>604</ele>
        <time>2024-11-15T16:23:45Z</time>
      </trkpt>
      <trkpt lat="45.63584" lon="4.62768">
        <ele>591</ele>
        <time>2024-11-15T16:24:17Z</time>
      </trkpt>
      <trkpt lat="45.63576" lon="4.628">
        <ele>588</ele>
        <time>2024-11-15T16:24:29Z</time>
      </trkpt>
      <trkpt lat="45.63571" lon="4.62866">
        <ele>583</ele>
        <time>2024-11-15T16:24:52Z</time>
      </trkpt>
      <trkpt lat="45.63565" lon="4.62886">
        <ele>581</ele>
        <time>2024-11-15T16:24:59Z</time>
      </trkpt>
      <trkpt lat="45.63551" lon="4.62917">
        <ele>576</ele>
        <time>2024-11-15T16:25:12Z</time>
      </trkpt>
      <trkpt lat="45.63539" lon="4.62937">
        <ele>572</ele>
        <time>2024-11-15T16:25:22Z</time>
      </trkpt>
      <trkpt lat="45.63539" lon="4.62942">
        <ele>571</ele>
        <time>2024-11-15T16:25:23Z</time>
      </trkpt>
      <trkpt lat="45.63552" lon="4.62949">
        <ele>572</ele>
        <time>2024-11-15T16:25:30Z</time>
      </trkpt>
      <trkpt lat="45.63583" lon="4.62956">
        <ele>575</ele>
        <time>2024-11-15T16:25:46Z</time>
      </trkpt>
      <trkpt lat="45.63615" lon="4.62957">
        <ele>579</ele>
        <time>2024-11-15T16:26:02Z</time>
      </trkpt>
      <trkpt lat="45.63641" lon="4.62954">
        <ele>583</ele>
        <time>2024-11-15T16:26:15Z</time>
      </trkpt>
      <trkpt lat="45.63689" lon="4.62953">
        <ele>590</ele>
        <time>2024-11-15T16:26:39Z</time>
      </trkpt>
      <trkpt lat="45.6374" lon="4.62978">
        <ele>594</ele>
        <time>2024-11-15T16:27:06Z</time>
      </trkpt>
      <trkpt lat="45.63752" lon="4.62991">
        <ele>594</ele>
        <time>2024-11-15T16:27:14Z</time>
      </trkpt>
      <trkpt lat="45.63794" lon="4.63092">
        <ele>602</ele>
        <time>2024-11-15T16:27:55Z</time>
      </trkpt>
      <trkpt lat="45.63804" lon="4.63104">
        <ele>604</ele>
        <time>2024-11-15T16:28:01Z</time>
      </trkpt>
      <trkpt lat="45.63815" lon="4.63108">
        <ele>607</ele>
        <time>2024-11-15T16:28:07Z</time>
      </trkpt>
      <trkpt lat="45.63836" lon="4.63101">
        <ele>612</ele>
        <time>2024-11-15T16:28:18Z</time>
      </trkpt>
      <trkpt lat="45.63869" lon="4.6308">
        <ele>620</ele>
        <time>2024-11-15T16:28:36Z</time>
      </trkpt>
      <trkpt lat="45.63896" lon="4.63072">
        <ele>625</ele>
        <time>2024-11-15T16:28:50Z</time>
      </trkpt>
      <trkpt lat="45.63965" lon="4.63042">
        <ele>635</ele>
        <time>2024-11-15T16:29:26Z</time>
      </trkpt>
      <trkpt lat="45.63996" lon="4.63023">
        <ele>639</ele>
        <time>2024-11-15T16:29:43Z</time>
      </trkpt>
      <trkpt lat="45.64028" lon="4.63007">
        <ele>639</ele>
        <time>2024-11-15T16:30:00Z</time>
      </trkpt>
      <trkpt lat="45.64089" lon="4.62985">
        <ele>637</ele>
        <time>2024-11-15T16:30:31Z</time>
      </trkpt>
      <trkpt lat="45.64112" lon="4.62969">
        <ele>635</ele>
        <time>2024-11-15T16:30:44Z</time>
      </trkpt>
      <trkpt lat="45.64127" lon="4.62953">
        <ele>635</ele>
        <time>2024-11-15T16:30:53Z</time>
      </trkpt>
      <trkpt lat="45.64144" lon="4.62942">
        <ele>634</ele>
        <time>2024-11-15T16:31:03Z</time>
      </trkpt>
      <trkpt lat="45.64214" lon="4.62904">
        <ele>627</ele>
        <time>2024-11-15T16:31:40Z</time>
      </trkpt>
      <trkpt lat="45.64281" lon="4.62862">
        <ele>619</ele>
        <time>2024-11-15T16:32:17Z</time>
      </trkpt>
      <trkpt lat="45.64286" lon="4.62888">
        <ele>617</ele>
        <time>2024-11-15T16:32:26Z</time>
      </trkpt>
      <trkpt lat="45.64315" lon="4.62974">
        <ele>612</ele>
        <time>2024-11-15T16:32:59Z</time>
      </trkpt>
      <trkpt lat="45.64321" lon="4.63005">
        <ele>611</ele>
        <time>2024-11-15T16:33:11Z</time>
      </trkpt>
      <trkpt lat="45.64325" lon="4.63048">
        <ele>610</ele>
        <time>2024-11-15T16:33:26Z</time>
      </trkpt>
      <trkpt lat="45.64337" lon="4.63085">
        <ele>610</ele>
        <time>2024-11-15T16:33:40Z</time>
      </trkpt>
      <trkpt lat="45.64326" lon="4.63159">
        <ele>601</ele>
        <time>2024-11-15T16:34:07Z</time>
      </trkpt>
      <trkpt lat="45.64333" lon="4.63244">
        <ele>597</ele>
        <time>2024-11-15T16:34:37Z</time>
      </trkpt>
      <trkpt lat="45.64326" lon="4.63284">
        <ele>592</ele>
        <time>2024-11-15T16:34:51Z</time>
      </trkpt>
      <trkpt lat="45.64324" lon="4.63359">
        <ele>585</ele>
        <time>2024-11-15T16:35:17Z</time>
      </trkpt>
      <trkpt lat="45.64321" lon="4.63377">
        <ele>582</ele>
        <time>2024-11-15T16:35:24Z</time>
      </trkpt>
      <trkpt lat="45.64306" lon="4.63384">
        <ele>578</ele>
        <time>2024-11-15T16:35:32Z</time>
      </trkpt>
      <trkpt lat="45.64289" lon="4.63404">
        <ele>574</ele>
        <time>2024-11-15T16:35:43Z</time>
      </trkpt>
      <trkpt lat="45.64271" lon="4.63465">
        <ele>564</ele>
        <time>2024-11-15T16:36:06Z</time>
      </trkpt>
      <trkpt lat="45.64219" lon="4.63561">
        <ele>541</ele>
        <time>2024-11-15T16:36:48Z</time>
      </trkpt>
      <trkpt lat="45.64182" lon="4.63606">
        <ele>532</ele>
        <time>2024-11-15T16:37:13Z</time>
      </trkpt>
      <trkpt lat="45.64169" lon="4.63647">
        <ele>527</ele>
        <time>2024-11-15T16:37:28Z</time>
      </trkpt>
      <trkpt lat="45.6415" lon="4.6367">
        <ele>522</ele>
        <time>2024-11-15T16:37:41Z</time>
      </trkpt>
      <trkpt lat="45.64136" lon="4.63666">
        <ele>520</ele>
        <time>2024-11-15T16:37:48Z</time>
      </trkpt>
      <trkpt lat="45.6411" lon="4.63639">
        <ele>517</ele>
        <time>2024-11-15T16:38:04Z</time>
      </trkpt>
      <trkpt lat="45.64109" lon="4.63681">
        <ele>514</ele>
        <time>2024-11-15T16:38:19Z</time>
      </trkpt>
      <trkpt lat="45.64112" lon="4.63691">
        <ele>514</ele>
        <time>2024-11-15T16:38:23Z</time>
      </trkpt>
      <trkpt lat="45.64133" lon="4.63703">
        <ele>517</ele>
        <time>2024-11-15T16:38:34Z</time>
      </trkpt>
      <trkpt lat="45.64139" lon="4.63727">
        <ele>517</ele>
        <time>2024-11-15T16:38:43Z</time>
      </trkpt>
      <trkpt lat="45.64129" lon="4.63756">
        <ele>514</ele>
        <time>2024-11-15T16:38:54Z</time>
      </trkpt>
      <trkpt lat="45.64118" lon="4.63775">
        <ele>512</ele>
        <time>2024-11-15T16:39:03Z</time>
      </trkpt>
      <trkpt lat="45.64116" lon="4.63804">
        <ele>513</ele>
        <time>2024-11-15T16:39:13Z</time>
      </trkpt>
      <trkpt lat="45.64115" lon="4.6383">
        <ele>514</ele>
        <time>2024-11-15T16:39:22Z</time>
      </trkpt>
      <trkpt lat="45.64127" lon="4.63923">
        <ele>522</ele>
        <time>2024-11-15T16:39:55Z</time>
      </trkpt>
      <trkpt lat="45.64129" lon="4.63925">
        <ele>522</ele>
        <time>2024-11-15T16:39:56Z</time>
      </trkpt>
      <trkpt lat="45.64133" lon="4.63924">
        <ele>523</ele>
        <time>2024-11-15T16:39:58Z</time>
      </trkpt>
      <trkpt lat="45.6414" lon="4.63895">
        <ele>524</ele>
        <time>2024-11-15T16:40:09Z</time>
      </trkpt>
      <trkpt lat="45.64153" lon="4.63865">
        <ele>527</ele>
        <time>2024-11-15T16:40:21Z</time>
      </trkpt>
      <trkpt lat="45.64178" lon="4.63829">
        <ele>531</ele>
        <time>2024-11-15T16:40:39Z</time>
      </trkpt>
      <trkpt lat="45.64181" lon="4.63832">
        <ele>532</ele>
        <time>2024-11-15T16:40:41Z</time>
      </trkpt>
      <trkpt lat="45.64183" lon="4.63901">
        <ele>536</ele>
        <time>2024-11-15T16:41:05Z</time>
      </trkpt>
      <trkpt lat="45.64188" lon="4.63923">
        <ele>538</ele>
        <time>2024-11-15T16:41:13Z</time>
      </trkpt>
      <trkpt lat="45.64201" lon="4.63944">
        <ele>540</ele>
        <time>2024-11-15T16:41:23Z</time>
      </trkpt>
      <trkpt lat="45.64215" lon="4.63956">
        <ele>542</ele>
        <time>2024-11-15T16:41:31Z</time>
      </trkpt>
      <trkpt lat="45.64227" lon="4.63963">
        <ele>544</ele>
        <time>2024-11-15T16:41:38Z</time>
      </trkpt>
      <trkpt lat="45.64289" lon="4.63983">
        <ele>549</ele>
        <time>2024-11-15T16:42:10Z</time>
      </trkpt>
      <trkpt lat="45.6436" lon="4.63992">
        <ele>551</ele>
        <time>2024-11-15T16:42:45Z</time>
      </trkpt>
      <trkpt lat="45.64425" lon="4.63996">
        <ele>551</ele>
        <time>2024-11-15T16:43:18Z</time>
      </trkpt>
      <trkpt lat="45.6446" lon="4.64008">
        <ele>550</ele>
        <time>2024-11-15T16:43:36Z</time>
      </trkpt>
      <trkpt lat="45.64481" lon="4.6402">
        <ele>549</ele>
        <time>2024-11-15T16:43:47Z</time>
      </trkpt>
      <trkpt lat="45.64487" lon="4.64028">
        <ele>549</ele>
        <time>2024-11-15T16:43:51Z</time>
      </trkpt>
      <trkpt lat="45.64493" lon="4.64054">
        <ele>547</ele>
        <time>2024-11-15T16:44:01Z</time>
      </trkpt>
      <trkpt lat="45.64497" lon="4.64093">
        <ele>544</ele>
        <time>2024-11-15T16:44:15Z</time>
      </trkpt>
      <trkpt lat="45.64488" lon="4.64195">
        <ele>539</ele>
        <time>2024-11-15T16:44:51Z</time>
      </trkpt>
      <trkpt lat="45.64486" lon="4.64251">
        <ele>540</ele>
        <time>2024-11-15T16:45:10Z</time>
      </trkpt>
      <trkpt lat="45.64535" lon="4.64239">
        <ele>540</ele>
        <time>2024-11-15T16:45:35Z</time>
      </trkpt>
      <trkpt lat="45.64556" lon="4.64226">
        <ele>539</ele>
        <time>2024-11-15T16:45:46Z</time>
      </trkpt>
      <trkpt lat="45.64578" lon="4.64193">
        <ele>539</ele>
        <time>2024-11-15T16:46:02Z</time>
      </trkpt>
      <trkpt lat="45.64593" lon="4.64163">
        <ele>539</ele>
        <time>2024-11-15T16:46:15Z</time>
      </trkpt>
      <trkpt lat="45.64605" lon="4.64129">
        <ele>541</ele>
        <time>2024-11-15T16:46:29Z</time>
      </trkpt>
      <trkpt lat="45.64616" lon="4.6412">
        <ele>542</ele>
        <time>2024-11-15T16:46:35Z</time>
      </trkpt>
      <trkpt lat="45.64629" lon="4.64123">
        <ele>541</ele>
        <time>2024-11-15T16:46:42Z</time>
      </trkpt>
      <trkpt lat="45.64667" lon="4.64151">
        <ele>539</ele>
        <time>2024-11-15T16:47:03Z</time>
      </trkpt>
      <trkpt lat="45.64693" lon="4.64153">
        <ele>541</ele>
        <time>2024-11-15T16:47:16Z</time>
      </trkpt>
      <trkpt lat="45.64773" lon="4.6412">
        <ele>547</ele>
        <time>2024-11-15T16:47:58Z</time>
      </trkpt>
      <trkpt lat="45.64802" lon="4.6413">
        <ele>549</ele>
        <time>2024-11-15T16:48:13Z</time>
      </trkpt>
      <trkpt lat="45.64846" lon="4.64152">
        <ele>550</ele>
        <time>2024-11-15T16:48:36Z</time>
      </trkpt>
      <trkpt lat="45.64859" lon="4.64172">
        <ele>550</ele>
        <time>2024-11-15T16:48:45Z</time>
      </trkpt>
      <trkpt lat="45.64872" lon="4.64201">
        <ele>550</ele>
        <time>2024-11-15T16:48:58Z</time>
      </trkpt>
      <trkpt lat="45.64885" lon="4.64242">
        <ele>550</ele>
        <time>2024-11-15T16:49:13Z</time>
      </trkpt>
      <trkpt lat="45.64894" lon="4.6425">
        <ele>551</ele>
        <time>2024-11-15T16:49:19Z</time>
      </trkpt>
      <trkpt lat="45.64921" lon="4.64247">
        <ele>554</ele>
        <time>2024-11-15T16:49:32Z</time>
      </trkpt>
      <trkpt lat="45.64939" lon="4.64242">
        <ele>554</ele>
        <time>2024-11-15T16:49:41Z</time>
      </trkpt>
      <trkpt lat="45.6496" lon="4.64278">
        <ele>552</ele>
        <time>2024-11-15T16:49:58Z</time>
      </trkpt>
      <trkpt lat="45.64997" lon="4.64358">
        <ele>547</ele>
        <time>2024-11-15T16:50:31Z</time>
      </trkpt>
      <trkpt lat="45.65038" lon="4.64422">
        <ele>543</ele>
        <time>2024-11-15T16:51:02Z</time>
      </trkpt>
      <trkpt lat="45.65056" lon="4.64456">
        <ele>543</ele>
        <time>2024-11-15T16:51:17Z</time>
      </trkpt>
      <trkpt lat="45.65138" lon="4.64441">
        <ele>542</ele>
        <time>2024-11-15T16:51:58Z</time>
      </trkpt>
      <trkpt lat="45.6525" lon="4.64326">
        <ele>533</ele>
        <time>2024-11-15T16:53:07Z</time>
      </trkpt>
      <trkpt lat="45.65251" lon="4.64328">
        <ele>533</ele>
        <time>2024-11-15T16:53:08Z</time>
      </trkpt>
      <trkpt lat="45.65305" lon="4.64304">
        <ele>525</ele>
        <time>2024-11-15T16:53:36Z</time>
      </trkpt>
      <trkpt lat="45.65328" lon="4.64286">
        <ele>521</ele>
        <time>2024-11-15T16:53:49Z</time>
      </trkpt>
      <trkpt lat="45.65346" lon="4.64276">
        <ele>517</ele>
        <time>2024-11-15T16:53:59Z</time>
      </trkpt>
      <trkpt lat="45.65376" lon="4.64276">
        <ele>511</ele>
        <time>2024-11-15T16:54:14Z</time>
      </trkpt>
      <trkpt lat="45.65444" lon="4.64284">
        <ele>500</ele>
        <time>2024-11-15T16:54:48Z</time>
      </trkpt>
      <trkpt lat="45.65459" lon="4.64283">
        <ele>498</ele>
        <time>2024-11-15T16:54:56Z</time>
      </trkpt>
      <trkpt lat="45.65468" lon="4.64276">
        <ele>497</ele>
        <time>2024-11-15T16:55:01Z</time>
      </trkpt>
      <trkpt lat="45.65481" lon="4.64249">
        <ele>495</ele>
        <time>2024-11-15T16:55:12Z</time>
      </trkpt>
      <trkpt lat="45.65493" lon="4.64238">
        <ele>492</ele>
        <time>2024-11-15T16:55:19Z</time>
      </trkpt>
      <trkpt lat="45.6553" lon="4.64187">
        <ele>487</ele>
        <time>2024-11-15T16:55:45Z</time>
      </trkpt>
      <trkpt lat="45.65552" lon="4.64151">
        <ele>484</ele>
        <time>2024-11-15T16:56:02Z</time>
      </trkpt>
      <trkpt lat="45.65592" lon="4.64109">
        <ele>481</ele>
        <time>2024-11-15T16:56:27Z</time>
      </trkpt>
      <trkpt lat="45.65646" lon="4.64059">
        <ele>470</ele>
        <time>2024-11-15T16:56:59Z</time>
      </trkpt>
      <trkpt lat="45.65716" lon="4.64015">
        <ele>453</ele>
        <time>2024-11-15T16:57:37Z</time>
      </trkpt>
      <trkpt lat="45.6574" lon="4.63994">
        <ele>447</ele>
        <time>2024-11-15T16:57:51Z</time>
      </trkpt>
      <trkpt lat="45.65753" lon="4.63955">
        <ele>440</ele>
        <time>2024-11-15T16:58:06Z</time>
      </trkpt>
      <trkpt lat="45.65778" lon="4.63932">
        <ele>433</ele>
        <time>2024-11-15T16:58:21Z</time>
      </trkpt>
      <trkpt lat="45.65817" lon="4.63924">
        <ele>426</ele>
        <time>2024-11-15T16:58:41Z</time>
      </trkpt>
      <trkpt lat="45.65887" lon="4.63935">
        <ele>417</ele>
        <time>2024-11-15T16:59:16Z</time>
      </trkpt>
      <trkpt lat="45.65915" lon="4.63952">
        <ele>413</ele>
        <time>2024-11-15T16:59:31Z</time>
      </trkpt>
      <trkpt lat="45.6597" lon="4.63908">
        <ele>412</ele>
        <time>2024-11-15T17:00:03Z</time>
      </trkpt>
      <trkpt lat="45.65982" lon="4.63934">
        <ele>410</ele>
        <time>2024-11-15T17:00:14Z</time>
      </trkpt>
      <trkpt lat="45.65987" lon="4.63953">
        <ele>409</ele>
        <time>2024-11-15T17:00:21Z</time>
      </trkpt>
      <trkpt lat="45.65989" lon="4.63995">
        <ele>409</ele>
        <time>2024-11-15T17:00:35Z</time>
      </trkpt>
      <trkpt lat="45.66008" lon="4.64033">
        <ele>412</ele>
        <time>2024-11-15T17:00:52Z</time>
      </trkpt>
      <trkpt lat="45.66032" lon="4.64103">
        <ele>418</ele>
        <time>2024-11-15T17:01:19Z</time>
      </trkpt>
      <trkpt lat="45.66026" lon="4.64114">
        <ele>421</ele>
        <time>2024-11-15T17:01:24Z</time>
      </trkpt>
      <trkpt lat="45.66008" lon="4.64123">
        <ele>426</ele>
        <time>2024-11-15T17:01:34Z</time>
      </trkpt>
      <trkpt lat="45.65973" lon="4.64125">
        <ele>428</ele>
        <time>2024-11-15T17:01:51Z</time>
      </trkpt>
      <trkpt lat="45.65954" lon="4.64135">
        <ele>429</ele>
        <time>2024-11-15T17:02:01Z</time>
      </trkpt>
      <trkpt lat="45.65933" lon="4.64152">
        <ele>432</ele>
        <time>2024-11-15T17:02:13Z</time>
      </trkpt>
      <trkpt lat="45.65928" lon="4.64176">
        <ele>437</ele>
        <time>2024-11-15T17:02:22Z</time>
      </trkpt>
      <trkpt lat="45.65919" lon="4.64197">
        <ele>441</ele>
        <time>2024-11-15T17:02:31Z</time>
      </trkpt>
      <trkpt lat="45.6592" lon="4.64214">
        <ele>444</ele>
        <time>2024-11-15T17:02:37Z</time>
      </trkpt>
      <trkpt lat="45.65933" lon="4.64231">
        <ele>447</ele>
        <time>2024-11-15T17:02:45Z</time>
      </trkpt>
      <trkpt lat="45.65943" lon="4.64236">
        <ele>448</ele>
        <time>2024-11-15T17:02:51Z</time>
      </trkpt>
      <trkpt lat="45.65976" lon="4.643">
        <ele>454</ele>
        <time>2024-11-15T17:03:19Z</time>
      </trkpt>
      <trkpt lat="45.65982" lon="4.64325">
        <ele>457</ele>
        <time>2024-11-15T17:03:28Z</time>
      </trkpt>
      <trkpt lat="45.65977" lon="4.64357">
        <ele>459</ele>
        <time>2024-11-15T17:03:39Z</time>
      </trkpt>
      <trkpt lat="45.65955" lon="4.64433">
        <ele>467</ele>
        <time>2024-11-15T17:04:08Z</time>
      </trkpt>
      <trkpt lat="45.65941" lon="4.64456">
        <ele>471</ele>
        <time>2024-11-15T17:04:19Z</time>
      </trkpt>
      <trkpt lat="45.65915" lon="4.64486">
        <ele>477</ele>
        <time>2024-11-15T17:04:35Z</time>
      </trkpt>
      <trkpt lat="45.65916" lon="4.64517">
        <ele>481</ele>
        <time>2024-11-15T17:04:46Z</time>
      </trkpt>
      <trkpt lat="45.65927" lon="4.64556">
        <ele>484</ele>
        <time>2024-11-15T17:05:01Z</time>
      </trkpt>
      <trkpt lat="45.6593" lon="4.64585">
        <ele>487</ele>
        <time>2024-11-15T17:05:11Z</time>
      </trkpt>
      <trkpt lat="45.65927" lon="4.64611">
        <ele>490</ele>
        <time>2024-11-15T17:05:20Z</time>
      </trkpt>
      <trkpt lat="45.65918" lon="4.64632">
        <ele>493</ele>
        <time>2024-11-15T17:05:29Z</time>
      </trkpt>
      <trkpt lat="45.65916" lon="4.6472">
        <ele>497</ele>
        <time>2024-11-15T17:06:00Z</time>
      </trkpt>
      <trkpt lat="45.65903" lon="4.648">
        <ele>502</ele>
        <time>2024-11-15T17:06:29Z</time>
      </trkpt>
      <trkpt lat="45.65895" lon="4.64819">
        <ele>504</ele>
        <time>2024-11-15T17:06:36Z</time>
      </trkpt>
      <trkpt lat="45.65833" lon="4.64895">
        <ele>511</ele>
        <time>2024-11-15T17:07:17Z</time>
      </trkpt>
      <trkpt lat="45.65796" lon="4.64926">
        <ele>515</ele>
        <time>2024-11-15T17:07:39Z</time>
      </trkpt>
      <trkpt lat="45.65766" lon="4.64964">
        <ele>517</ele>
        <time>2024-11-15T17:07:59Z</time>
      </trkpt>
      <trkpt lat="45.6569" lon="4.65025">
        <ele>521</ele>
        <time>2024-11-15T17:08:42Z</time>
      </trkpt>
      <trkpt lat="45.65557" lon="4.65221">
        <ele>535</ele>
        <time>2024-11-15T17:10:18Z</time>
      </trkpt>
      <trkpt lat="45.65542" lon="4.65252">
        <ele>537</ele>
        <time>2024-11-15T17:10:31Z</time>
      </trkpt>
      <trkpt lat="45.65521" lon="4.65281">
        <ele>537</ele>
        <time>2024-11-15T17:10:46Z</time>
      </trkpt>
      <trkpt lat="45.65491" lon="4.65313">
        <ele>538</ele>
        <time>2024-11-15T17:11:04Z</time>
      </trkpt>
      <trkpt lat="45.65473" lon="4.65342">
        <ele>535</ele>
        <time>2024-11-15T17:11:18Z</time>
      </trkpt>
      <trkpt lat="45.65465" lon="4.65368">
        <ele>532</ele>
        <time>2024-11-15T17:11:28Z</time>
      </trkpt>
      <trkpt lat="45.65457" lon="4.65385">
        <ele>530</ele>
        <time>2024-11-15T17:11:35Z</time>
      </trkpt>
      <trkpt lat="45.65443" lon="4.65394">
        <ele>528</ele>
        <time>2024-11-15T17:11:43Z</time>
      </trkpt>
      <trkpt lat="45.65426" lon="4.65389">
        <ele>529</ele>
        <time>2024-11-15T17:11:51Z</time>
      </trkpt>
      <trkpt lat="45.65384" lon="4.6536">
        <ele>536</ele>
        <time>2024-11-15T17:12:15Z</time>
      </trkpt>
      <trkpt lat="45.65372" lon="4.65357">
        <ele>537</ele>
        <time>2024-11-15T17:12:21Z</time>
      </trkpt>
      <trkpt lat="45.65365" lon="4.65359">
        <ele>538</ele>
        <time>2024-11-15T17:12:24Z</time>
      </trkpt>
      <trkpt lat="45.65361" lon="4.65369">
        <ele>537</ele>
        <time>2024-11-15T17:12:28Z</time>
      </trkpt>
      <trkpt lat="45.65355" lon="4.6544">
        <ele>530</ele>
        <time>2024-11-15T17:12:53Z</time>
      </trkpt>
      <trkpt lat="45.65348" lon="4.6547">
        <ele>527</ele>
        <time>2024-11-15T17:13:04Z</time>
      </trkpt>
      <trkpt lat="45.65336" lon="4.65495">
        <ele>526</ele>
        <time>2024-11-15T17:13:15Z</time>
      </trkpt>
      <trkpt lat="45.65315" lon="4.65523">
        <ele>524</ele>
        <time>2024-11-15T17:13:29Z</time>
      </trkpt>
      <trkpt lat="45.65288" lon="4.65543">
        <ele>523</ele>
        <time>2024-11-15T17:13:45Z</time>
      </trkpt>
      <trkpt lat="45.65278" lon="4.65545">
        <ele>524</ele>
        <time>2024-11-15T17:13:50Z</time>
      </trkpt>
      <trkpt lat="45.65225" lon="4.65542">
        <ele>528</ele>
        <time>2024-11-15T17:14:16Z</time>
      </trkpt>
      <trkpt lat="45.65184" lon="4.6553">
        <ele>532</ele>
        <time>2024-11-15T17:14:37Z</time>
      </trkpt>
      <trkpt lat="45.65171" lon="4.65534">
        <ele>532</ele>
        <time>2024-11-15T17:14:44Z</time>
      </trkpt>
      <trkpt lat="45.65161" lon="4.65556">
        <ele>530</ele>
        <time>2024-11-15T17:14:53Z</time>
      </trkpt>
      <trkpt lat="45.65162" lon="4.65578">
        <ele>527</ele>
        <time>2024-11-15T17:15:01Z</time>
      </trkpt>
      <trkpt lat="45.65172" lon="4.65618">
        <ele>524</ele>
        <time>2024-11-15T17:15:16Z</time>
      </trkpt>
      <trkpt lat="45.65169" lon="4.65653">
        <ele>524</ele>
        <time>2024-11-15T17:15:28Z</time>
      </trkpt>
      <trkpt lat="45.65153" lon="4.65685">
        <ele>527</ele>
        <time>2024-11-15T17:15:42Z</time>
      </trkpt>
      <trkpt lat="45.65144" lon="4.65709">
        <ele>528</ele>
        <time>2024-11-15T17:15:51Z</time>
      </trkpt>
      <trkpt lat="45.65143" lon="4.65732">
        <ele>528</ele>
        <time>2024-11-15T17:15:59Z</time>
      </trkpt>
      <trkpt lat="45.65157" lon="4.65785">
        <ele>527</ele>
        <time>2024-11-15T17:16:19Z</time>
      </trkpt>
      <trkpt lat="45.65156" lon="4.65803">
        <ele>528</ele>
        <time>2024-11-15T17:16:25Z</time>
      </trkpt>
      <trkpt lat="45.65151" lon="4.65817">
        <ele>528</ele>
        <time>2024-11-15T17:16:31Z</time>
      </trkpt>
      <trkpt lat="45.65142" lon="4.6583">
        <ele>529</ele>
        <time>2024-11-15T17:16:37Z</time>
      </trkpt>
      <trkpt lat="45.65118" lon="4.65854">
        <ele>530</ele>
        <time>2024-11-15T17:16:52Z</time>
      </trkpt>
      <trkpt lat="45.65065" lon="4.65932">
        <ele>531</ele>
        <time>2024-11-15T17:17:30Z</time>
      </trkpt>
      <trkpt lat="45.65008" lon="4.66006">
        <ele>534</ele>
        <time>2024-11-15T17:18:09Z</time>
      </trkpt>
      <trkpt lat="45.64999" lon="4.66033">
        <ele>535</ele>
        <time>2024-11-15T17:18:19Z</time>
      </trkpt>
      <trkpt lat="45.64992" lon="4.66045">
        <ele>534</ele>
        <time>2024-11-15T17:18:25Z</time>
      </trkpt>
      <trkpt lat="45.64907" lon="4.66164">
        <ele>535</ele>
        <time>2024-11-15T17:19:24Z</time>
      </trkpt>
      <trkpt lat="45.64898" lon="4.6619">
        <ele>533</ele>
        <time>2024-11-15T17:19:34Z</time>
      </trkpt>
      <trkpt lat="45.64937" lon="4.66231">
        <ele>532</ele>
        <time>2024-11-15T17:19:58Z</time>
      </trkpt>
      <trkpt lat="45.65015" lon="4.6627">
        <ele>528</ele>
        <time>2024-11-15T17:20:40Z</time>
      </trkpt>
      <trkpt lat="45.6503" lon="4.66268">
        <ele>527</ele>
        <time>2024-11-15T17:20:47Z</time>
      </trkpt>
      <trkpt lat="45.65063" lon="4.66227">
        <ele>526</ele>
        <time>2024-11-15T17:21:09Z</time>
      </trkpt>
      <trkpt lat="45.65095" lon="4.66196">
        <ele>525</ele>
        <time>2024-11-15T17:21:28Z</time>
      </trkpt>
      <trkpt lat="45.65123" lon="4.66177">
        <ele>524</ele>
        <time>2024-11-15T17:21:44Z</time>
      </trkpt>
      <trkpt lat="45.65173" lon="4.66172">
        <ele>520</ele>
        <time>2024-11-15T17:22:09Z</time>
      </trkpt>
      <trkpt lat="45.65212" lon="4.66187">
        <ele>515</ele>
        <time>2024-11-15T17:22:29Z</time>
      </trkpt>
      <trkpt lat="45.65253" lon="4.6618">
        <ele>511</ele>
        <time>2024-11-15T17:22:50Z</time>
      </trkpt>
      <trkpt lat="45.6529" lon="4.66159">
        <ele>505</ele>
        <time>2024-11-15T17:23:10Z</time>
      </trkpt>
      <trkpt lat="45.65324" lon="4.66152">
        <ele>498</ele>
        <time>2024-11-15T17:23:27Z</time>
      </trkpt>
      <trkpt lat="45.65346" lon="4.66156">
        <ele>495</ele>
        <time>2024-11-15T17:23:38Z</time>
      </trkpt>
      <trkpt lat="45.65377" lon="4.66193">
        <ele>490</ele>
        <time>2024-11-15T17:23:58Z</time>
      </trkpt>
      <trkpt lat="45.6539" lon="4.66204">
        <ele>488</ele>
        <time>2024-11-15T17:24:06Z</time>
      </trkpt>
      <trkpt lat="45.65401" lon="4.66224">
        <ele>486</ele>
        <time>2024-11-15T17:24:15Z</time>
      </trkpt>
      <trkpt lat="45.65403" lon="4.66258">
        <ele>485</ele>
        <time>2024-11-15T17:24:27Z</time>
      </trkpt>
      <trkpt lat="45.65486" lon="4.66413">
        <ele>468</ele>
        <time>2024-11-15T17:25:35Z</time>
      </trkpt>
      <trkpt lat="45.65486" lon="4.6642">
        <ele>467</ele>
        <time>2024-11-15T17:25:38Z</time>
      </trkpt>
      <trkpt lat="45.65506" lon="4.66448">
        <ele>463</ele>
        <time>2024-11-15T17:25:52Z</time>
      </trkpt>
      <trkpt lat="45.65516" lon="4.66491">
        <ele>457</ele>
        <time>2024-11-15T17:26:07Z</time>
      </trkpt>
      <trkpt lat="45.65516" lon="4.66522">
        <ele>454</ele>
        <time>2024-11-15T17:26:18Z</time>
      </trkpt>
      <trkpt lat="45.65545" lon="4.6656">
        <ele>447</ele>
        <time>2024-11-15T17:26:38Z</time>
      </trkpt>
      <trkpt lat="45.65561" lon="4.66592">
        <ele>442</ele>
        <time>2024-11-15T17:26:52Z</time>
      </trkpt>
      <trkpt lat="45.6558" lon="4.66659">
        <ele>435</ele>
        <time>2024-11-15T17:27:17Z</time>
      </trkpt>
      <trkpt lat="45.65596" lon="4.66692">
        <ele>434</ele>
        <time>2024-11-15T17:27:31Z</time>
      </trkpt>
      <trkpt lat="45.65615" lon="4.66713">
        <ele>435</ele>
        <time>2024-11-15T17:27:43Z</time>
      </trkpt>
      <trkpt lat="45.6562" lon="4.66733">
        <ele>436</ele>
        <time>2024-11-15T17:27:50Z</time>
      </trkpt>
      <trkpt lat="45.65597" lon="4.66847">
        <ele>430</ele>
        <time>2024-11-15T17:28:32Z</time>
      </trkpt>
      <trkpt lat="45.65603" lon="4.66864">
        <ele>430</ele>
        <time>2024-11-15T17:28:39Z</time>
      </trkpt>
      <trkpt lat="45.65615" lon="4.66874">
        <ele>432</ele>
        <time>2024-11-15T17:28:46Z</time>
      </trkpt>
      <trkpt lat="45.65638" lon="4.66885">
        <ele>435</ele>
        <time>2024-11-15T17:28:58Z</time>
      </trkpt>
      <trkpt lat="45.65664" lon="4.66892">
        <ele>439</ele>
        <time>2024-11-15T17:29:11Z</time>
      </trkpt>
      <trkpt lat="45.65696" lon="4.66894">
        <ele>443</ele>
        <time>2024-11-15T17:29:27Z</time>
      </trkpt>
      <trkpt lat="45.65828" lon="4.66919">
        <ele>455</ele>
        <time>2024-11-15T17:30:34Z</time>
      </trkpt>
      <trkpt lat="45.65859" lon="4.6694">
        <ele>456</ele>
        <time>2024-11-15T17:30:51Z</time>
      </trkpt>
      <trkpt lat="45.65949" lon="4.67024">
        <ele>454</ele>
        <time>2024-11-15T17:31:45Z</time>
      </trkpt>
      <trkpt lat="45.65991" lon="4.67057">
        <ele>451</ele>
        <time>2024-11-15T17:32:08Z</time>
      </trkpt>
      <trkpt lat="45.66016" lon="4.67082">
        <ele>449</ele>
        <time>2024-11-15T17:32:24Z</time>
      </trkpt>
      <trkpt lat="45.66097" lon="4.67104">
        <ele>447</ele>
        <time>2024-11-15T17:33:05Z</time>
      </trkpt>
      <trkpt lat="45.66109" lon="4.67105">
        <ele>446</ele>
        <time>2024-11-15T17:33:11Z</time>
      </trkpt>
      <trkpt lat="45.66119" lon="4.67103">
        <ele>446</ele>
        <time>2024-11-15T17:33:16Z</time>
      </trkpt>
      <trkpt lat="45.66118" lon="4.67116">
        <ele>446</ele>
        <time>2024-11-15T17:33:21Z</time>
      </trkpt>
      <trkpt lat="45.66086" lon="4.67225">
        <ele>444</ele>
        <time>2024-11-15T17:34:02Z</time>
      </trkpt>
      <trkpt lat="45.66055" lon="4.67351">
        <ele>440</ele>
        <time>2024-11-15T17:34:49Z</time>
      </trkpt>
      <trkpt lat="45.66046" lon="4.67405">
        <ele>438</ele>
        <time>2024-11-15T17:35:08Z</time>
      </trkpt>
      <trkpt lat="45.66047" lon="4.67424">
        <ele>438</ele>
        <time>2024-11-15T17:35:15Z</time>
      </trkpt>
      <trkpt lat="45.66068" lon="4.67477">
        <ele>438</ele>
        <time>2024-11-15T17:35:36Z</time>
      </trkpt>
      <trkpt lat="45.6609" lon="4.67523">
        <ele>439</ele>
        <time>2024-11-15T17:35:56Z</time>
      </trkpt>
      <trkpt lat="45.66175" lon="4.67675">
        <ele>438</ele>
        <time>2024-11-15T17:37:04Z</time>
      </trkpt>
      <trkpt lat="45.66215" lon="4.67734">
        <ele>434</ele>
        <time>2024-11-15T17:37:32Z</time>
      </trkpt>
      <trkpt lat="45.66246" lon="4.67772">
        <ele>432</ele>
        <time>2024-11-15T17:37:53Z</time>
      </trkpt>
      <trkpt lat="45.66273" lon="4.67799">
        <ele>428</ele>
        <time>2024-11-15T17:38:09Z</time>
      </trkpt>
      <trkpt lat="45.66305" lon="4.67836">
        <ele>426</ele>
        <time>2024-11-15T17:38:30Z</time>
      </trkpt>
      <trkpt lat="45.66377" lon="4.67925">
        <ele>419</ele>
        <time>2024-11-15T17:39:18Z</time>
      </trkpt>
      <trkpt lat="45.66406" lon="4.67966">
        <ele>417</ele>
        <time>2024-11-15T17:39:38Z</time>
      </trkpt>
      <trkpt lat="45.66402" lon="4.67977">
        <ele>416</ele>
        <time>2024-11-15T17:39:42Z</time>
      </trkpt>
      <trkpt lat="45.6635" lon="4.68029">
        <ele>414</ele>
        <time>2024-11-15T17:40:14Z</time>
      </trkpt>
      <trkpt lat="45.6636" lon="4.68035">
        <ele>414</ele>
        <time>2024-11-15T17:40:19Z</time>
      </trkpt>
      <trkpt lat="45.66389" lon="4.68062">
        <ele>412</ele>
        <time>2024-11-15T17:40:37Z</time>
      </trkpt>
      <trkpt lat="45.66432" lon="4.68112">
        <ele>409</ele>
        <time>2024-11-15T17:41:05Z</time>
      </trkpt>
      <trkpt lat="45.66468" lon="4.68178">
        <ele>407</ele>
        <time>2024-11-15T17:41:34Z</time>
      </trkpt>
      <trkpt lat="45.66504" lon="4.68217">
        <ele>405</ele>
        <time>2024-11-15T17:41:56Z</time>
      </trkpt>
      <trkpt lat="45.6662" lon="4.68294">
        <ele>399</ele>
        <time>2024-11-15T17:43:00Z</time>
      </trkpt>
      <trkpt lat="45.66718" lon="4.68341">
        <ele>393</ele>
        <time>2024-11-15T17:43:52Z</time>
      </trkpt>
      <trkpt lat="45.66758" lon="4.68356">
        <ele>391</ele>
        <time>2024-11-15T17:44:13Z</time>
      </trkpt>
      <trkpt lat="45.66815" lon="4.68392">
        <ele>387</ele>
        <time>2024-11-15T17:44:44Z</time>
      </trkpt>
      <trkpt lat="45.66834" lon="4.68399">
        <ele>386</ele>
        <time>2024-11-15T17:44:54Z</time>
      </trkpt>
      <trkpt lat="45.66864" lon="4.68403">
        <ele>384</ele>
        <time>2024-11-15T17:45:09Z</time>
      </trkpt>
      <trkpt lat="45.66909" lon="4.68416">
        <ele>381</ele>
        <time>2024-11-15T17:45:32Z</time>
      </trkpt>
      <trkpt lat="45.66941" lon="4.68429">
        <ele>379</ele>
        <time>2024-11-15T17:45:48Z</time>
      </trkpt>
      <trkpt lat="45.66961" lon="4.68406">
        <ele>380</ele>
        <time>2024-11-15T17:46:01Z</time>
      </trkpt>
      <trkpt lat="45.66971" lon="4.684">
        <ele>380</ele>
        <time>2024-11-15T17:46:07Z</time>
      </trkpt>
      <trkpt lat="45.66986" lon="4.68396">
        <ele>380</ele>
        <time>2024-11-15T17:46:14Z</time>
      </trkpt>
      <trkpt lat="45.67011" lon="4.68396">
        <ele>380</ele>
        <time>2024-11-15T17:46:27Z</time>
      </trkpt>
      <trkpt lat="45.67037" lon="4.68386">
        <ele>380</ele>
        <time>2024-11-15T17:46:40Z</time>
      </trkpt>
      <trkpt lat="45.67077" lon="4.68345">
        <ele>382</ele>
        <time>2024-11-15T17:47:05Z</time>
      </trkpt>
      <trkpt lat="45.67108" lon="4.68394">
        <ele>380</ele>
        <time>2024-11-15T17:47:28Z</time>
      </trkpt>
      <trkpt lat="45.67119" lon="4.684">
        <ele>380</ele>
        <time>2024-11-15T17:47:34Z</time>
      </trkpt>
      <trkpt lat="45.67197" lon="4.68459">
        <ele>378</ele>
        <time>2024-11-15T17:48:18Z</time>
      </trkpt>
      <trkpt lat="45.67229" lon="4.68486">
        <ele>377</ele>
        <time>2024-11-15T17:48:37Z</time>
      </trkpt>
      <trkpt lat="45.67251" lon="4.68514">
        <ele>375</ele>
        <time>2024-11-15T17:48:51Z</time>
      </trkpt>
      <trkpt lat="45.67302" lon="4.6854">
        <ele>375</ele>
        <time>2024-11-15T17:49:19Z</time>
      </trkpt>
      <trkpt lat="45.67311" lon="4.68548">
        <ele>375</ele>
        <time>2024-11-15T17:49:24Z</time>
      </trkpt>
      <trkpt lat="45.67319" lon="4.68559">
        <ele>375</ele>
        <time>2024-11-15T17:49:29Z</time>
      </trkpt>
      <trkpt lat="45.67421" lon="4.68815">
        <ele>377</ele>
        <time>2024-11-15T17:51:12Z</time>
      </trkpt>
      <trkpt lat="45.67429" lon="4.68851">
        <ele>378</ele>
        <time>2024-11-15T17:51:26Z</time>
      </trkpt>
      <trkpt lat="45.67431" lon="4.68894">
        <ele>379</ele>
        <time>2024-11-15T17:51:41Z</time>
      </trkpt>
      <trkpt lat="45.67434" lon="4.68912">
        <ele>379</ele>
        <time>2024-11-15T17:51:47Z</time>
      </trkpt>
      <trkpt lat="45.6746" lon="4.69006">
        <ele>378</ele>
        <time>2024-11-15T17:52:23Z</time>
      </trkpt>
      <trkpt lat="45.67467" lon="4.69021">
        <ele>378</ele>
        <time>2024-11-15T17:52:29Z</time>
      </trkpt>
      <trkpt lat="45.67496" lon="4.69059">
        <ele>378</ele>
        <time>2024-11-15T17:52:49Z</time>
      </trkpt>
      <trkpt lat="45.67593" lon="4.69147">
        <ele>375</ele>
        <time>2024-11-15T17:53:46Z</time>
      </trkpt>
      <trkpt lat="45.67661" lon="4.69184">
        <ele>372</ele>
        <time>2024-11-15T17:54:22Z</time>
      </trkpt>
      <trkpt lat="45.67683" lon="4.69203">
        <ele>371</ele>
        <time>2024-11-15T17:54:35Z</time>
      </trkpt>
      <trkpt lat="45.67702" lon="4.69225">
        <ele>369</ele>
        <time>2024-11-15T17:54:48Z</time>
      </trkpt>
      <trkpt lat="45.67734" lon="4.69274">
        <ele>368</ele>
        <time>2024-11-15T17:55:11Z</time>
      </trkpt>
      <trkpt lat="45.67744" lon="4.69295">
        <ele>367</ele>
        <time>2024-11-15T17:55:20Z</time>
      </trkpt>
      <trkpt lat="45.67739" lon="4.69305">
        <ele>367</ele>
        <time>2024-11-15T17:55:24Z</time>
      </trkpt>
      <trkpt lat="45.6774" lon="4.69317">
        <ele>367</ele>
        <time>2024-11-15T17:55:28Z</time>
      </trkpt>
      <trkpt lat="45.67749" lon="4.69329">
        <ele>367</ele>
        <time>2024-11-15T17:55:35Z</time>
      </trkpt>
      <trkpt lat="45.67753" lon="4.69329">
        <ele>367</ele>
        <time>2024-11-15T17:55:37Z</time>
      </trkpt>
      <trkpt lat="45.67764" lon="4.69348">
        <ele>367</ele>
        <time>2024-11-15T17:55:45Z</time>
      </trkpt>
      <trkpt lat="45.67777" lon="4.69386">
        <ele>367</ele>
        <time>2024-11-15T17:56:00Z</time>
      </trkpt>
      <trkpt lat="45.67785" lon="4.69489">
        <ele>366</ele>
        <time>2024-11-15T17:56:36Z</time>
      </trkpt>
      <trkpt lat="45.67794" lon="4.69534">
        <ele>365</ele>
        <time>2024-11-15T17:56:53Z</time>
      </trkpt>
      <trkpt lat="45.67736" lon="4.69586">
        <ele>364</ele>
        <time>2024-11-15T17:57:27Z</time>
      </trkpt>
      <trkpt lat="45.67743" lon="4.69601">
        <ele>364</ele>
        <time>2024-11-15T17:57:33Z</time>
      </trkpt>
      <trkpt lat="45.67793" lon="4.69557">
        <ele>365</ele>
        <time>2024-11-15T17:58:02Z</time>
      </trkpt>
      <trkpt lat="45.67825" lon="4.69646">
        <ele>364</ele>
        <time>2024-11-15T17:58:37Z</time>
      </trkpt>
      <trkpt lat="45.67838" lon="4.69713">
        <ele>362</ele>
        <time>2024-11-15T17:59:02Z</time>
      </trkpt>
      <trkpt lat="45.67841" lon="4.69897">
        <ele>356</ele>
        <time>2024-11-15T18:00:06Z</time>
      </trkpt>
      <trkpt lat="45.67872" lon="4.70007">
        <ele>352</ele>
        <time>2024-11-15T18:00:48Z</time>
      </trkpt>
      <trkpt lat="45.67871" lon="4.70012">
        <ele>352</ele>
        <time>2024-11-15T18:00:49Z</time>
      </trkpt>
      <trkpt lat="45.67956" lon="4.70031">
        <ele>353</ele>
        <time>2024-11-15T18:01:32Z</time>
      </trkpt>
      <trkpt lat="45.67964" lon="4.70026">
        <ele>353</ele>
        <time>2024-11-15T18:01:37Z</time>
      </trkpt>
      <trkpt lat="45.67997" lon="4.69867">
        <ele>362</ele>
        <time>2024-11-15T18:02:35Z</time>
      </trkpt>
      <trkpt lat="45.68025" lon="4.69811">
        <ele>363</ele>
        <time>2024-11-15T18:02:59Z</time>
      </trkpt>
      <trkpt lat="45.6808" lon="4.69717">
        <ele>363</ele>
        <time>2024-11-15T18:03:42Z</time>
      </trkpt>
      <trkpt lat="45.68094" lon="4.6973">
        <ele>362</ele>
        <time>2024-11-15T18:03:50Z</time>
      </trkpt>
      <trkpt lat="45.68163" lon="4.69775">
        <ele>358</ele>
        <time>2024-11-15T18:04:28Z</time>
      </trkpt>
      <trkpt lat="45.68232" lon="4.69828">
        <ele>354</ele>
        <time>2024-11-15T18:05:07Z</time>
      </trkpt>
      <trkpt lat="45.6826" lon="4.69856">
        <ele>353</ele>
        <time>2024-11-15T18:05:24Z</time>
      </trkpt>
      <trkpt lat="45.68304" lon="4.6991">
        <ele>352</ele>
        <time>2024-11-15T18:05:53Z</time>
      </trkpt>
      <trkpt lat="45.68321" lon="4.6994">
        <ele>352</ele>
        <time>2024-11-15T18:06:07Z</time>
      </trkpt>
      <trkpt lat="45.68356" lon="4.69975">
        <ele>352</ele>
        <time>2024-11-15T18:06:28Z</time>
      </trkpt>
      <trkpt lat="45.68324" lon="4.7008">
        <ele>352</ele>
        <time>2024-11-15T18:07:08Z</time>
      </trkpt>
      <trkpt lat="45.68304" lon="4.7012">
        <ele>351</ele>
        <time>2024-11-15T18:07:25Z</time>
      </trkpt>
      <trkpt lat="45.68283" lon="4.70174">
        <ele>350</ele>
        <time>2024-11-15T18:07:47Z</time>
      </trkpt>
      <trkpt lat="45.6828" lon="4.70185">
        <ele>349</ele>
        <time>2024-11-15T18:07:51Z</time>
      </trkpt>
      <trkpt lat="45.68282" lon="4.70225">
        <ele>349</ele>
        <time>2024-11-15T18:08:05Z</time>
      </trkpt>
      <trkpt lat="45.68258" lon="4.7031">
        <ele>345</ele>
        <time>2024-11-15T18:08:37Z</time>
      </trkpt>
      <trkpt lat="45.68235" lon="4.70311">
        <ele>345</ele>
        <time>2024-11-15T18:08:49Z</time>
      </trkpt>
      <trkpt lat="45.6823" lon="4.70337">
        <ele>343</ele>
        <time>2024-11-15T18:08:58Z</time>
      </trkpt>
      <trkpt lat="45.68233" lon="4.70345">
        <ele>343</ele>
        <time>2024-11-15T18:09:01Z</time>
      </trkpt>
      <trkpt lat="45.68253" lon="4.7037">
        <ele>343</ele>
        <time>2024-11-15T18:09:15Z</time>
      </trkpt>
      <trkpt lat="45.68285" lon="4.70404">
        <ele>343</ele>
        <time>2024-11-15T18:09:35Z</time>
      </trkpt>
      <trkpt lat="45.68322" lon="4.70455">
        <ele>345</ele>
        <time>2024-11-15T18:10:00Z</time>
      </trkpt>
      <trkpt lat="45.68344" lon="4.70497">
        <ele>346</ele>
        <time>2024-11-15T18:10:19Z</time>
      </trkpt>
      <trkpt lat="45.68357" lon="4.70516">
        <ele>345</ele>
        <time>2024-11-15T18:10:28Z</time>
      </trkpt>
      <trkpt lat="45.6839" lon="4.70552">
        <ele>346</ele>
        <time>2024-11-15T18:10:49Z</time>
      </trkpt>
      <trkpt lat="45.68413" lon="4.70583">
        <ele>346</ele>
        <time>2024-11-15T18:11:05Z</time>
      </trkpt>
      <trkpt lat="45.68442" lon="4.70632">
        <ele>341</ele>
        <time>2024-11-15T18:11:27Z</time>
      </trkpt>
      <trkpt lat="45.68462" lon="4.70645">
        <ele>339</ele>
        <time>2024-11-15T18:11:38Z</time>
      </trkpt>
      <trkpt lat="45.6847" lon="4.7067">
        <ele>338</ele>
        <time>2024-11-15T18:11:48Z</time>
      </trkpt>
      <trkpt lat="45.68487" lon="4.70697">
        <ele>336</ele>
        <time>2024-11-15T18:12:00Z</time>
      </trkpt>
      <trkpt lat="45.68586" lon="4.70826">
        <ele>328</ele>
        <time>2024-11-15T18:13:07Z</time>
      </trkpt>
      <trkpt lat="45.68669" lon="4.70906">
        <ele>325</ele>
        <time>2024-11-15T18:13:57Z</time>
      </trkpt>
      <trkpt lat="45.68708" lon="4.7094">
        <ele>323</ele>
        <time>2024-11-15T18:14:20Z</time>
      </trkpt>
      <trkpt lat="45.68722" lon="4.70947">
        <ele>323</ele>
        <time>2024-11-15T18:14:28Z</time>
      </trkpt>
      <trkpt lat="45.68772" lon="4.70876">
        <ele>321</ele>
        <time>2024-11-15T18:15:03Z</time>
      </trkpt>
      <trkpt lat="45.68848" lon="4.70665">
        <ele>313</ele>
        <time>2024-11-15T18:16:26Z</time>
      </trkpt>
      <trkpt lat="45.68937" lon="4.70526">
        <ele>311</ele>
        <time>2024-11-15T18:17:32Z</time>
      </trkpt>
      <trkpt lat="45.69038" lon="4.70497">
        <ele>309</ele>
        <time>2024-11-15T18:18:23Z</time>
      </trkpt>
      <trkpt lat="45.69116" lon="4.70512">
        <ele>306</ele>
        <time>2024-11-15T18:19:03Z</time>
      </trkpt>
      <trkpt lat="45.69187" lon="4.7052">
        <ele>304</ele>
        <time>2024-11-15T18:19:38Z</time>
      </trkpt>
      <trkpt lat="45.69254" lon="4.70495">
        <ele>302</ele>
        <time>2024-11-15T18:20:13Z</time>
      </trkpt>
      <trkpt lat="45.693" lon="4.70458">
        <ele>301</ele>
        <time>2024-11-15T18:20:39Z</time>
      </trkpt>
      <trkpt lat="45.69357" lon="4.70386">
        <ele>302</ele>
        <time>2024-11-15T18:21:17Z</time>
      </trkpt>
      <trkpt lat="45.69576" lon="4.706">
        <ele>296</ele>
        <time>2024-11-15T18:23:30Z</time>
      </trkpt>
      <trkpt lat="45.6963" lon="4.70645">
        <ele>296</ele>
        <time>2024-11-15T18:24:01Z</time>
      </trkpt>
      <trkpt lat="45.69754" lon="4.70699">
        <ele>295</ele>
        <time>2024-11-15T18:25:06Z</time>
      </trkpt>
      <trkpt lat="45.6974" lon="4.70755">
        <ele>295</ele>
        <time>2024-11-15T18:25:27Z</time>
      </trkpt>
      <trkpt lat="45.69796" lon="4.70788">
        <ele>286</ele>
        <time>2024-11-15T18:25:57Z</time>
      </trkpt>
      <trkpt lat="45.69868" lon="4.70817">
        <ele>275</ele>
        <time>2024-11-15T18:26:35Z</time>
      </trkpt>
      <trkpt lat="45.69859" lon="4.7085">
        <ele>273</ele>
        <time>2024-11-15T18:26:47Z</time>
      </trkpt>
      <trkpt lat="45.69842" lon="4.70873">
        <ele>273</ele>
        <time>2024-11-15T18:26:59Z</time>
      </trkpt>
      <trkpt lat="45.69855" lon="4.70876">
        <ele>271</ele>
        <time>2024-11-15T18:27:05Z</time>
      </trkpt>
      <trkpt lat="45.69897" lon="4.70863">
        <ele>267</ele>
        <time>2024-11-15T18:27:27Z</time>
      </trkpt>
      <trkpt lat="45.69944" lon="4.70801">
        <ele>266</ele>
        <time>2024-11-15T18:27:59Z</time>
      </trkpt>
      <trkpt lat="45.69957" lon="4.7074">
        <ele>268</ele>
        <time>2024-11-15T18:28:21Z</time>
      </trkpt>
      <trkpt lat="45.69961" lon="4.70737">
        <ele>267</ele>
        <time>2024-11-15T18:28:24Z</time>
      </trkpt>
      <trkpt lat="45.69965" lon="4.70753">
        <ele>266</ele>
        <time>2024-11-15T18:28:29Z</time>
      </trkpt>
      <trkpt lat="45.69957" lon="4.70799">
        <ele>264</ele>
        <time>2024-11-15T18:28:46Z</time>
      </trkpt>
      <trkpt lat="45.69945" lon="4.70833">
        <ele>263</ele>
        <time>2024-11-15T18:28:59Z</time>
      </trkpt>
      <trkpt lat="45.69956" lon="4.7085">
        <ele>260</ele>
        <time>2024-11-15T18:29:07Z</time>
      </trkpt>
      <trkpt lat="45.69945" lon="4.7087">
        <ele>260</ele>
        <time>2024-11-15T18:29:16Z</time>
      </trkpt>
      <trkpt lat="45.69995" lon="4.70907">
        <ele>253</ele>
        <time>2024-11-15T18:29:45Z</time>
      </trkpt>
      <trkpt lat="45.70029" lon="4.70908">
        <ele>255</ele>
        <time>2024-11-15T18:30:02Z</time>
      </trkpt>
      <trkpt lat="45.7009" lon="4.70923">
        <ele>260</ele>
        <time>2024-11-15T18:30:33Z</time>
      </trkpt>
      <trkpt lat="45.70099" lon="4.70872">
        <ele>261</ele>
        <time>2024-11-15T18:30:51Z</time>
      </trkpt>
      <trkpt lat="45.7023" lon="4.70858">
        <ele>280</ele>
        <time>2024-11-15T18:31:57Z</time>
      </trkpt>
      <trkpt lat="45.70244" lon="4.70851">
        <ele>283</ele>
        <time>2024-11-15T18:32:04Z</time>
      </trkpt>
      <trkpt lat="45.70292" lon="4.70794">
        <ele>291</ele>
        <time>2024-11-15T18:32:35Z</time>
      </trkpt>
      <trkpt lat="45.70341" lon="4.70773">
        <ele>297</ele>
        <time>2024-11-15T18:33:01Z</time>
      </trkpt>
      <trkpt lat="45.70377" lon="4.70766">
        <ele>299</ele>
        <time>2024-11-15T18:33:19Z</time>
      </trkpt>
      <trkpt lat="45.70389" lon="4.70759">
        <ele>300</ele>
        <time>2024-11-15T18:33:26Z</time>
      </trkpt>
      <trkpt lat="45.70402" lon="4.70738">
        <ele>301</ele>
        <time>2024-11-15T18:33:35Z</time>
      </trkpt>
      <trkpt lat="45.70457" lon="4.70723">
        <ele>304</ele>
        <time>2024-11-15T18:34:03Z</time>
      </trkpt>
      <trkpt lat="45.70536" lon="4.70717">
        <ele>308</ele>
        <time>2024-11-15T18:34:43Z</time>
      </trkpt>
      <trkpt lat="45.70545" lon="4.70867">
        <ele>306</ele>
        <time>2024-11-15T18:35:36Z</time>
      </trkpt>
      <trkpt lat="45.70551" lon="4.70909">
        <ele>307</ele>
        <time>2024-11-15T18:35:51Z</time>
      </trkpt>
      <trkpt lat="45.70539" lon="4.71027">
        <ele>306</ele>
        <time>2024-11-15T18:36:32Z</time>
      </trkpt>
      <trkpt lat="45.70548" lon="4.71134">
        <ele>306</ele>
        <time>2024-11-15T18:37:10Z</time>
      </trkpt>
      <trkpt lat="45.7065" lon="4.71362">
        <ele>311</ele>
        <time>2024-11-15T18:38:44Z</time>
      </trkpt>
      <trkpt lat="45.70678" lon="4.71474">
        <ele>312</ele>
        <time>2024-11-15T18:39:26Z</time>
      </trkpt>
      <trkpt lat="45.70695" lon="4.71556">
        <ele>312</ele>
        <time>2024-11-15T18:39:56Z</time>
      </trkpt>
      <trkpt lat="45.70709" lon="4.71642">
        <ele>313</ele>
        <time>2024-11-15T18:40:27Z</time>
      </trkpt>
      <trkpt lat="45.70721" lon="4.71738">
        <ele>315</ele>
        <time>2024-11-15T18:41:01Z</time>
      </trkpt>
      <trkpt lat="45.70731" lon="4.71775">
        <ele>316</ele>
        <time>2024-11-15T18:41:15Z</time>
      </trkpt>
      <trkpt lat="45.70771" lon="4.71848">
        <ele>315</ele>
        <time>2024-11-15T18:41:47Z</time>
      </trkpt>
      <trkpt lat="45.70811" lon="4.71905">
        <ele>314</ele>
        <time>2024-11-15T18:42:15Z</time>
      </trkpt>
      <trkpt lat="45.70864" lon="4.71995">
        <ele>313</ele>
        <time>2024-11-15T18:42:57Z</time>
      </trkpt>
      <trkpt lat="45.7081" lon="4.72116">
        <ele>312</ele>
        <time>2024-11-15T18:43:47Z</time>
      </trkpt>
      <trkpt lat="45.70748" lon="4.72337">
        <ele>311</ele>
        <time>2024-11-15T18:45:10Z</time>
      </trkpt>
      <trkpt lat="45.70529" lon="4.72749">
        <ele>307</ele>
        <time>2024-11-15T18:48:11Z</time>
      </trkpt>
      <trkpt lat="45.70441" lon="4.72791">
        <ele>307</ele>
        <time>2024-11-15T18:48:57Z</time>
      </trkpt>
      <trkpt lat="45.70356" lon="4.72998">
        <ele>307</ele>
        <time>2024-11-15T18:50:21Z</time>
      </trkpt>
      <trkpt lat="45.70328" lon="4.73092">
        <ele>307</ele>
        <time>2024-11-15T18:50:57Z</time>
      </trkpt>
      <trkpt lat="45.70369" lon="4.73144">
        <ele>308</ele>
        <time>2024-11-15T18:51:24Z</time>
      </trkpt>
      <trkpt lat="45.70394" lon="4.73168">
        <ele>308</ele>
        <time>2024-11-15T18:51:39Z</time>
      </trkpt>
      <trkpt lat="45.70515" lon="4.7325">
        <ele>308</ele>
        <time>2024-11-15T18:52:46Z</time>
      </trkpt>
      <trkpt lat="45.70554" lon="4.73281">
        <ele>308</ele>
        <time>2024-11-15T18:53:09Z</time>
      </trkpt>
      <trkpt lat="45.70578" lon="4.73305">
        <ele>307</ele>
        <time>2024-11-15T18:53:23Z</time>
      </trkpt>
      <trkpt lat="45.7065" lon="4.7341">
        <ele>310</ele>
        <time>2024-11-15T18:54:15Z</time>
      </trkpt>
      <trkpt lat="45.70693" lon="4.73466">
        <ele>311</ele>
        <time>2024-11-15T18:54:44Z</time>
      </trkpt>
      <trkpt lat="45.70757" lon="4.73533">
        <ele>312</ele>
        <time>2024-11-15T18:55:24Z</time>
      </trkpt>
      <trkpt lat="45.70772" lon="4.73445">
        <ele>310</ele>
        <time>2024-11-15T18:55:55Z</time>
      </trkpt>
      <trkpt lat="45.7078" lon="4.73448">
        <ele>310</ele>
        <time>2024-11-15T18:55:59Z</time>
      </trkpt>
      <trkpt lat="45.70801" lon="4.73357">
        <ele>308</ele>
        <time>2024-11-15T18:56:33Z</time>
      </trkpt>
      <trkpt lat="45.70822" lon="4.73326">
        <ele>307</ele>
        <time>2024-11-15T18:56:48Z</time>
      </trkpt>
      <trkpt lat="45.70834" lon="4.73328">
        <ele>308</ele>
        <time>2024-11-15T18:56:54Z</time>
      </trkpt>
      <trkpt lat="45.70824" lon="4.73354">
        <ele>309</ele>
        <time>2024-11-15T18:57:04Z</time>
      </trkpt>
      <trkpt lat="45.70802" lon="4.73356">
        <ele>308</ele>
        <time>2024-11-15T18:57:15Z</time>
      </trkpt>
      <trkpt lat="45.70779" lon="4.73447">
        <ele>310</ele>
        <time>2024-11-15T18:57:49Z</time>
      </trkpt>
      <trkpt lat="45.70772" lon="4.73445">
        <ele>310</ele>
        <time>2024-11-15T18:57:53Z</time>
      </trkpt>
      <trkpt lat="45.70757" lon="4.73533">
        <ele>312</ele>
        <time>2024-11-15T18:58:24Z</time>
      </trkpt>
      <trkpt lat="45.70693" lon="4.73466">
        <ele>311</ele>
        <time>2024-11-15T18:59:04Z</time>
      </trkpt>
      <trkpt lat="45.7065" lon="4.7341">
        <ele>310</ele>
        <time>2024-11-15T18:59:33Z</time>
      </trkpt>
      <trkpt lat="45.70578" lon="4.73305">
        <ele>307</ele>
        <time>2024-11-15T19:00:25Z</time>
      </trkpt>
      <trkpt lat="45.70554" lon="4.73281">
        <ele>308</ele>
        <time>2024-11-15T19:00:39Z</time>
      </trkpt>
      <trkpt lat="45.70515" lon="4.7325">
        <ele>308</ele>
        <time>2024-11-15T19:01:02Z</time>
      </trkpt>
      <trkpt lat="45.70394" lon="4.73168">
        <ele>308</ele>
        <time>2024-11-15T19:02:09Z</time>
      </trkpt>
      <trkpt lat="45.70369" lon="4.73144">
        <ele>308</ele>
        <time>2024-11-15T19:02:24Z</time>
      </trkpt>
      <trkpt lat="45.70328" lon="4.73092">
        <ele>307</ele>
        <time>2024-11-15T19:02:51Z</time>
      </trkpt>
      <trkpt lat="45.70322" lon="4.731">
        <ele>307</ele>
        <time>2024-11-15T19:02:55Z</time>
      </trkpt>
      <trkpt lat="45.70304" lon="4.73198">
        <ele>307</ele>
        <time>2024-11-15T19:03:31Z</time>
      </trkpt>
      <trkpt lat="45.703" lon="4.73238">
        <ele>306</ele>
        <time>2024-11-15T19:03:45Z</time>
      </trkpt>
      <trkpt lat="45.70292" lon="4.73349">
        <ele>306</ele>
        <time>2024-11-15T19:04:24Z</time>
      </trkpt>
      <trkpt lat="45.70294" lon="4.73453">
        <ele>306</ele>
        <time>2024-11-15T19:05:00Z</time>
      </trkpt>
      <trkpt lat="45.70291" lon="4.73484">
        <ele>306</ele>
        <time>2024-11-15T19:05:11Z</time>
      </trkpt>
      <trkpt lat="45.70284" lon="4.7351">
        <ele>306</ele>
        <time>2024-11-15T19:05:21Z</time>
      </trkpt>
      <trkpt lat="45.70267" lon="4.7355">
        <ele>307</ele>
        <time>2024-11-15T19:05:37Z</time>
      </trkpt>
      <trkpt lat="45.70254" lon="4.73596">
        <ele>309</ele>
        <time>2024-11-15T19:05:54Z</time>
      </trkpt>
      <trkpt lat="45.70246" lon="4.73651">
        <ele>311</ele>
        <time>2024-11-15T19:06:14Z</time>
      </trkpt>
      <trkpt lat="45.70244" lon="4.73735">
        <ele>314</ele>
        <time>2024-11-15T19:06:43Z</time>
      </trkpt>
      <trkpt lat="45.70233" lon="4.73806">
        <ele>317</ele>
        <time>2024-11-15T19:07:09Z</time>
      </trkpt>
      <trkpt lat="45.70235" lon="4.73828">
        <ele>318</ele>
        <time>2024-11-15T19:07:17Z</time>
      </trkpt>
      <trkpt lat="45.70197" lon="4.7385">
        <ele>319</ele>
        <time>2024-11-15T19:07:37Z</time>
      </trkpt>
      <trkpt lat="45.70184" lon="4.73862">
        <ele>320</ele>
        <time>2024-11-15T19:07:45Z</time>
      </trkpt>
      <trkpt lat="45.70157" lon="4.7391">
        <ele>323</ele>
        <time>2024-11-15T19:08:06Z</time>
      </trkpt>
      <trkpt lat="45.70099" lon="4.74082">
        <ele>320</ele>
        <time>2024-11-15T19:09:13Z</time>
      </trkpt>
      <trkpt lat="45.70032" lon="4.74354">
        <ele>313</ele>
        <time>2024-11-15T19:10:54Z</time>
      </trkpt>
      <trkpt lat="45.70021" lon="4.74391">
        <ele>312</ele>
        <time>2024-11-15T19:11:08Z</time>
      </trkpt>
      <trkpt lat="45.69959" lon="4.74569">
        <ele>307</ele>
        <time>2024-11-15T19:12:18Z</time>
      </trkpt>
      <trkpt lat="45.69902" lon="4.74718">
        <ele>305</ele>
        <time>2024-11-15T19:13:17Z</time>
      </trkpt>
      <trkpt lat="45.69907" lon="4.74728">
        <ele>305</ele>
        <time>2024-11-15T19:13:21Z</time>
      </trkpt>
      <trkpt lat="45.69899" lon="4.74762">
        <ele>304</ele>
        <time>2024-11-15T19:13:34Z</time>
      </trkpt>
      <trkpt lat="45.69899" lon="4.7496">
        <ele>294</ele>
        <time>2024-11-15T19:14:43Z</time>
      </trkpt>
      <trkpt lat="45.69851" lon="4.75295">
        <ele>280</ele>
        <time>2024-11-15T19:16:43Z</time>
      </trkpt>
      <trkpt lat="45.69848" lon="4.75325">
        <ele>279</ele>
        <time>2024-11-15T19:16:53Z</time>
      </trkpt>
      <trkpt lat="45.69846" lon="4.75432">
        <ele>277</ele>
        <time>2024-11-15T19:17:31Z</time>
      </trkpt>
      <trkpt lat="45.70042" lon="4.75426">
        <ele>273</ele>
        <time>2024-11-15T19:19:09Z</time>
      </trkpt>
      <trkpt lat="45.70046" lon="4.75409">
        <ele>274</ele>
        <time>2024-11-15T19:19:15Z</time>
      </trkpt>
      <trkpt lat="45.70057" lon="4.75403">
        <ele>274</ele>
        <time>2024-11-15T19:19:21Z</time>
      </trkpt>
      <trkpt lat="45.70063" lon="4.75406">
        <ele>274</ele>
        <time>2024-11-15T19:19:24Z</time>
      </trkpt>
      <trkpt lat="45.70072" lon="4.75404">
        <ele>274</ele>
        <time>2024-11-15T19:19:29Z</time>
      </trkpt>
      <trkpt lat="45.70106" lon="4.75406">
        <ele>273</ele>
        <time>2024-11-15T19:19:46Z</time>
      </trkpt>
      <trkpt lat="45.70237" lon="4.75379">
        <ele>272</ele>
        <time>2024-11-15T19:20:52Z</time>
      </trkpt>
      <trkpt lat="45.70363" lon="4.75312">
        <ele>271</ele>
        <time>2024-11-15T19:21:59Z</time>
      </trkpt>
      <trkpt lat="45.70459" lon="4.7525">
        <ele>273</ele>
        <time>2024-11-15T19:22:52Z</time>
      </trkpt>
      <trkpt lat="45.70462" lon="4.75259">
        <ele>272</ele>
        <time>2024-11-15T19:22:55Z</time>
      </trkpt>
      <trkpt lat="45.70462" lon="4.75321">
        <ele>272</ele>
        <time>2024-11-15T19:23:17Z</time>
      </trkpt>
      <trkpt lat="45.70468" lon="4.75341">
        <ele>273</ele>
        <time>2024-11-15T19:23:24Z</time>
      </trkpt>
      <trkpt lat="45.70466" lon="4.75354">
        <ele>274</ele>
        <time>2024-11-15T19:23:29Z</time>
      </trkpt>
      <trkpt lat="45.70474" lon="4.75355">
        <ele>274</ele>
        <time>2024-11-15T19:23:33Z</time>
      </trkpt>
      <trkpt lat="45.70498" lon="4.75339">
        <ele>275</ele>
        <time>2024-11-15T19:23:46Z</time>
      </trkpt>
      <trkpt lat="45.70509" lon="4.75345">
        <ele>277</ele>
        <time>2024-11-15T19:23:52Z</time>
      </trkpt>
      <trkpt lat="45.70593" lon="4.75318">
        <ele>289</ele>
        <time>2024-11-15T19:24:35Z</time>
      </trkpt>
      <trkpt lat="45.70596" lon="4.75296">
        <ele>288</ele>
        <time>2024-11-15T19:24:43Z</time>
      </trkpt>
      <trkpt lat="45.70611" lon="4.75281">
        <ele>290</ele>
        <time>2024-11-15T19:24:52Z</time>
      </trkpt>
      <trkpt lat="45.70639" lon="4.75269">
        <ele>293</ele>
        <time>2024-11-15T19:25:07Z</time>
      </trkpt>
      <trkpt lat="45.70684" lon="4.75296">
        <ele>298</ele>
        <time>2024-11-15T19:25:31Z</time>
      </trkpt>
      <trkpt lat="45.70694" lon="4.75313">
        <ele>298</ele>
        <time>2024-11-15T19:25:39Z</time>
      </trkpt>
      <trkpt lat="45.70755" lon="4.75326">
        <ele>300</ele>
        <time>2024-11-15T19:26:10Z</time>
      </trkpt>
      <trkpt lat="45.70934" lon="4.75387">
        <ele>307</ele>
        <time>2024-11-15T19:27:42Z</time>
      </trkpt>
      <trkpt lat="45.70983" lon="4.75396">
        <ele>311</ele>
        <time>2024-11-15T19:28:07Z</time>
      </trkpt>
      <trkpt lat="45.71053" lon="4.7542">
        <ele>313</ele>
        <time>2024-11-15T19:28:43Z</time>
      </trkpt>
      <trkpt lat="45.71052" lon="4.75592">
        <ele>313</ele>
        <time>2024-11-15T19:29:43Z</time>
      </trkpt>
      <trkpt lat="45.71044" lon="4.75723">
        <ele>314</ele>
        <time>2024-11-15T19:30:29Z</time>
      </trkpt>
      <trkpt lat="45.71038" lon="4.7576">
        <ele>315</ele>
        <time>2024-11-15T19:30:42Z</time>
      </trkpt>
      <trkpt lat="45.71014" lon="4.75819">
        <ele>317</ele>
        <time>2024-11-15T19:31:06Z</time>
      </trkpt>
      <trkpt lat="45.71004" lon="4.75819">
        <ele>317</ele>
        <time>2024-11-15T19:31:11Z</time>
      </trkpt>
      <trkpt lat="45.70993" lon="4.75852">
        <ele>317</ele>
        <time>2024-11-15T19:31:24Z</time>
      </trkpt>
      <trkpt lat="45.71017" lon="4.76006">
        <ele>319</ele>
        <time>2024-11-15T19:32:19Z</time>
      </trkpt>
      <trkpt lat="45.71042" lon="4.76048">
        <ele>318</ele>
        <time>2024-11-15T19:32:38Z</time>
      </trkpt>
      <trkpt lat="45.71023" lon="4.76083">
        <ele>318</ele>
        <time>2024-11-15T19:32:54Z</time>
      </trkpt>
      <trkpt lat="45.71083" lon="4.76131">
        <ele>314</ele>
        <time>2024-11-15T19:33:28Z</time>
      </trkpt>
      <trkpt lat="45.71086" lon="4.76186">
        <ele>310</ele>
        <time>2024-11-15T19:33:47Z</time>
      </trkpt>
      <trkpt lat="45.71081" lon="4.76265">
        <ele>305</ele>
        <time>2024-11-15T19:34:15Z</time>
      </trkpt>
      <trkpt lat="45.71059" lon="4.76329">
        <ele>301</ele>
        <time>2024-11-15T19:34:40Z</time>
      </trkpt>
      <trkpt lat="45.71043" lon="4.76423">
        <ele>285</ele>
        <time>2024-11-15T19:35:14Z</time>
      </trkpt>
      <trkpt lat="45.71064" lon="4.76428">
        <ele>287</ele>
        <time>2024-11-15T19:35:25Z</time>
      </trkpt>
      <trkpt lat="45.71073" lon="4.76439">
        <ele>287</ele>
        <time>2024-11-15T19:35:30Z</time>
      </trkpt>
      <trkpt lat="45.71048" lon="4.7653">
        <ele>269</ele>
        <time>2024-11-15T19:36:05Z</time>
      </trkpt>
      <trkpt lat="45.71047" lon="4.76635">
        <ele>253</ele>
        <time>2024-11-15T19:36:41Z</time>
      </trkpt>
      <trkpt lat="45.71073" lon="4.76716">
        <ele>246</ele>
        <time>2024-11-15T19:37:12Z</time>
      </trkpt>
      <trkpt lat="45.71096" lon="4.76833">
        <ele>240</ele>
        <time>2024-11-15T19:37:55Z</time>
      </trkpt>
      <trkpt lat="45.71141" lon="4.76977">
        <ele>234</ele>
        <time>2024-11-15T19:38:50Z</time>
      </trkpt>
      <trkpt lat="45.71142" lon="4.76993">
        <ele>233</ele>
        <time>2024-11-15T19:38:56Z</time>
      </trkpt>
      <trkpt lat="45.71163" lon="4.76999">
        <ele>235</ele>
        <time>2024-11-15T19:39:06Z</time>
      </trkpt>
      <trkpt lat="45.71261" lon="4.77001">
        <ele>238</ele>
        <time>2024-11-15T19:39:55Z</time>
      </trkpt>
      <trkpt lat="45.71298" lon="4.76998">
        <ele>237</ele>
        <time>2024-11-15T19:40:14Z</time>
      </trkpt>
      <trkpt lat="45.71318" lon="4.76992">
        <ele>237</ele>
        <time>2024-11-15T19:40:24Z</time>
      </trkpt>
      <trkpt lat="45.71445" lon="4.76972">
        <ele>246</ele>
        <time>2024-11-15T19:41:28Z</time>
      </trkpt>
      <trkpt lat="45.71455" lon="4.76966">
        <ele>246</ele>
        <time>2024-11-15T19:41:34Z</time>
      </trkpt>
      <trkpt lat="45.71489" lon="4.76965">
        <ele>248</ele>
        <time>2024-11-15T19:41:51Z</time>
      </trkpt>
      <trkpt lat="45.7153" lon="4.76954">
        <ele>250</ele>
        <time>2024-11-15T19:42:11Z</time>
      </trkpt>
      <trkpt lat="45.71607" lon="4.76926">
        <ele>252</ele>
        <time>2024-11-15T19:42:51Z</time>
      </trkpt>
      <trkpt lat="45.71609" lon="4.76942">
        <ele>251</ele>
        <time>2024-11-15T19:42:57Z</time>
      </trkpt>
      <trkpt lat="45.71608" lon="4.76965">
        <ele>250</ele>
        <time>2024-11-15T19:43:05Z</time>
      </trkpt>
      <trkpt lat="45.71604" lon="4.76988">
        <ele>250</ele>
        <time>2024-11-15T19:43:13Z</time>
      </trkpt>
      <trkpt lat="45.71729" lon="4.77033">
        <ele>247</ele>
        <time>2024-11-15T19:44:18Z</time>
      </trkpt>
      <trkpt lat="45.71747" lon="4.77053">
        <ele>247</ele>
        <time>2024-11-15T19:44:29Z</time>
      </trkpt>
      <trkpt lat="45.71804" lon="4.77053">
        <ele>244</ele>
        <time>2024-11-15T19:44:58Z</time>
      </trkpt>
      <trkpt lat="45.71913" lon="4.77086">
        <ele>245</ele>
        <time>2024-11-15T19:45:53Z</time>
      </trkpt>
      <trkpt lat="45.71935" lon="4.7715">
        <ele>242</ele>
        <time>2024-11-15T19:46:18Z</time>
      </trkpt>
      <trkpt lat="45.71916" lon="4.77189">
        <ele>240</ele>
        <time>2024-11-15T19:46:35Z</time>
      </trkpt>
      <trkpt lat="45.71916" lon="4.77215">
        <ele>240</ele>
        <time>2024-11-15T19:46:44Z</time>
      </trkpt>
      <trkpt lat="45.71923" lon="4.77268">
        <ele>239</ele>
        <time>2024-11-15T19:47:03Z</time>
      </trkpt>
      <trkpt lat="45.7203" lon="4.77234">
        <ele>241</ele>
        <time>2024-11-15T19:47:58Z</time>
      </trkpt>
      <trkpt lat="45.72038" lon="4.77239">
        <ele>240</ele>
        <time>2024-11-15T19:48:02Z</time>
      </trkpt>
      <trkpt lat="45.72069" lon="4.77356">
        <ele>238</ele>
        <time>2024-11-15T19:48:46Z</time>
      </trkpt>
      <trkpt lat="45.72066" lon="4.77372">
        <ele>238</ele>
        <time>2024-11-15T19:48:52Z</time>
      </trkpt>
      <trkpt lat="45.72053" lon="4.77401">
        <ele>237</ele>
        <time>2024-11-15T19:49:04Z</time>
      </trkpt>
      <trkpt lat="45.72052" lon="4.77414">
        <ele>237</ele>
        <time>2024-11-15T19:49:08Z</time>
      </trkpt>
      <trkpt lat="45.72058" lon="4.7743">
        <ele>236</ele>
        <time>2024-11-15T19:49:15Z</time>
      </trkpt>
      <trkpt lat="45.72065" lon="4.77438">
        <ele>235</ele>
        <time>2024-11-15T19:49:19Z</time>
      </trkpt>
      <trkpt lat="45.72085" lon="4.7745">
        <ele>232</ele>
        <time>2024-11-15T19:49:30Z</time>
      </trkpt>
      <trkpt lat="45.72141" lon="4.77469">
        <ele>227</ele>
        <time>2024-11-15T19:49:59Z</time>
      </trkpt>
      <trkpt lat="45.72192" lon="4.77506">
        <ele>219</ele>
        <time>2024-11-15T19:50:27Z</time>
      </trkpt>
      <trkpt lat="45.72218" lon="4.77514">
        <ele>217</ele>
        <time>2024-11-15T19:50:41Z</time>
      </trkpt>
      <trkpt lat="45.72299" lon="4.7758">
        <ele>211</ele>
        <time>2024-11-15T19:51:27Z</time>
      </trkpt>
      <trkpt lat="45.72348" lon="4.77631">
        <ele>207</ele>
        <time>2024-11-15T19:51:58Z</time>
      </trkpt>
      <trkpt lat="45.72396" lon="4.77637">
        <ele>204</ele>
        <time>2024-11-15T19:52:22Z</time>
      </trkpt>
      <trkpt lat="45.72402" lon="4.77627">
        <ele>205</ele>
        <time>2024-11-15T19:52:26Z</time>
      </trkpt>
      <trkpt lat="45.72407" lon="4.77629">
        <ele>204</ele>
        <time>2024-11-15T19:52:29Z</time>
      </trkpt>
      <trkpt lat="45.72409" lon="4.77634">
        <ele>204</ele>
        <time>2024-11-15T19:52:31Z</time>
      </trkpt>
      <trkpt lat="45.72446" lon="4.77604">
        <ele>205</ele>
        <time>2024-11-15T19:52:52Z</time>
      </trkpt>
      <trkpt lat="45.72468" lon="4.77555">
        <ele>207</ele>
        <time>2024-11-15T19:53:13Z</time>
      </trkpt>
      <trkpt lat="45.72513" lon="4.77524">
        <ele>207</ele>
        <time>2024-11-15T19:53:38Z</time>
      </trkpt>
      <trkpt lat="45.72568" lon="4.77508">
        <ele>209</ele>
        <time>2024-11-15T19:54:06Z</time>
      </trkpt>
      <trkpt lat="45.7258" lon="4.77576">
        <ele>207</ele>
        <time>2024-11-15T19:54:30Z</time>
      </trkpt>
      <trkpt lat="45.72579" lon="4.77621">
        <ele>205</ele>
        <time>2024-11-15T19:54:46Z</time>
      </trkpt>
      <trkpt lat="45.72582" lon="4.77651">
        <ele>204</ele>
        <time>2024-11-15T19:54:56Z</time>
      </trkpt>
      <trkpt lat="45.72597" lon="4.77704">
        <ele>198</ele>
        <time>2024-11-15T19:55:16Z</time>
      </trkpt>
      <trkpt lat="45.72608" lon="4.77761">
        <ele>192</ele>
        <time>2024-11-15T19:55:37Z</time>
      </trkpt>
      <trkpt lat="45.72632" lon="4.77928">
        <ele>177</ele>
        <time>2024-11-15T19:56:37Z</time>
      </trkpt>
      <trkpt lat="45.72636" lon="4.77989">
        <ele>177</ele>
        <time>2024-11-15T19:56:58Z</time>
      </trkpt>
      <trkpt lat="45.7264" lon="4.78013">
        <ele>178</ele>
        <time>2024-11-15T19:57:07Z</time>
      </trkpt>
      <trkpt lat="45.72637" lon="4.78013">
        <ele>178</ele>
        <time>2024-11-15T19:57:08Z</time>
      </trkpt>
      <trkpt lat="45.72641" lon="4.78022">
        <ele>179</ele>
        <time>2024-11-15T19:57:12Z</time>
      </trkpt>
      <trkpt lat="45.72656" lon="4.78116">
        <ele>192</ele>
        <time>2024-11-15T19:57:46Z</time>
      </trkpt>
      <trkpt lat="45.72654" lon="4.7813">
        <ele>194</ele>
        <time>2024-11-15T19:57:51Z</time>
      </trkpt>
      <trkpt lat="45.72633" lon="4.78156">
        <ele>195</ele>
        <time>2024-11-15T19:58:04Z</time>
      </trkpt>
      <trkpt lat="45.7263" lon="4.78165">
        <ele>196</ele>
        <time>2024-11-15T19:58:08Z</time>
      </trkpt>
      <trkpt lat="45.72626" lon="4.78234">
        <ele>208</ele>
        <time>2024-11-15T19:58:32Z</time>
      </trkpt>
      <trkpt lat="45.72643" lon="4.78298">
        <ele>220</ele>
        <time>2024-11-15T19:58:56Z</time>
      </trkpt>
      <trkpt lat="45.72657" lon="4.7833">
        <ele>224</ele>
        <time>2024-11-15T19:59:09Z</time>
      </trkpt>
      <trkpt lat="45.72667" lon="4.78363">
        <ele>228</ele>
        <time>2024-11-15T19:59:22Z</time>
      </trkpt>
      <trkpt lat="45.72684" lon="4.78449">
        <ele>236</ele>
        <time>2024-11-15T19:59:53Z</time>
      </trkpt>
      <trkpt lat="45.72706" lon="4.7858">
        <ele>248</ele>
        <time>2024-11-15T20:00:40Z</time>
      </trkpt>
      <trkpt lat="45.72714" lon="4.78646">
        <ele>253</ele>
        <time>2024-11-15T20:01:03Z</time>
      </trkpt>
      <trkpt lat="45.72652" lon="4.78668">
        <ele>253</ele>
        <time>2024-11-15T20:01:35Z</time>
      </trkpt>
      <trkpt lat="45.72633" lon="4.78687">
        <ele>256</ele>
        <time>2024-11-15T20:01:47Z</time>
      </trkpt>
      <trkpt lat="45.72621" lon="4.78707">
        <ele>257</ele>
        <time>2024-11-15T20:01:56Z</time>
      </trkpt>
      <trkpt lat="45.72608" lon="4.78747">
        <ele>261</ele>
        <time>2024-11-15T20:02:12Z</time>
      </trkpt>
      <trkpt lat="45.72623" lon="4.78794">
        <ele>263</ele>
        <time>2024-11-15T20:02:30Z</time>
      </trkpt>
      <trkpt lat="45.72635" lon="4.78849">
        <ele>267</ele>
        <time>2024-11-15T20:02:50Z</time>
      </trkpt>
      <trkpt lat="45.72644" lon="4.78877">
        <ele>269</ele>
        <time>2024-11-15T20:03:01Z</time>
      </trkpt>
      <trkpt lat="45.72653" lon="4.78892">
        <ele>272</ele>
        <time>2024-11-15T20:03:08Z</time>
      </trkpt>
      <trkpt lat="45.72686" lon="4.78935">
        <ele>278</ele>
        <time>2024-11-15T20:03:30Z</time>
      </trkpt>
      <trkpt lat="45.72758" lon="4.78996">
        <ele>281</ele>
        <time>2024-11-15T20:04:12Z</time>
      </trkpt>
      <trkpt lat="45.7268" lon="4.79102">
        <ele>268</ele>
        <time>2024-11-15T20:05:06Z</time>
      </trkpt>
      <trkpt lat="45.72664" lon="4.79091">
        <ele>266</ele>
        <time>2024-11-15T20:05:14Z</time>
      </trkpt>
      <trkpt lat="45.72649" lon="4.7909">
        <ele>261</ele>
        <time>2024-11-15T20:05:22Z</time>
      </trkpt>
      <trkpt lat="45.72633" lon="4.79084">
        <ele>256</ele>
        <time>2024-11-15T20:05:30Z</time>
      </trkpt>
      <trkpt lat="45.72619" lon="4.79086">
        <ele>252</ele>
        <time>2024-11-15T20:05:37Z</time>
      </trkpt>
      <trkpt lat="45.72609" lon="4.79093">
        <ele>249</ele>
        <time>2024-11-15T20:05:43Z</time>
      </trkpt>
      <trkpt lat="45.72603" lon="4.79108">
        <ele>246</ele>
        <time>2024-11-15T20:05:49Z</time>
      </trkpt>
      <trkpt lat="45.72604" lon="4.79144">
        <ele>245</ele>
        <time>2024-11-15T20:06:01Z</time>
      </trkpt>
      <trkpt lat="45.72609" lon="4.79179">
        <ele>246</ele>
        <time>2024-11-15T20:06:14Z</time>
      </trkpt>
      <trkpt lat="45.72606" lon="4.79181">
        <ele>245</ele>
        <time>2024-11-15T20:06:16Z</time>
      </trkpt>
      <trkpt lat="45.72589" lon="4.79239">
        <ele>240</ele>
        <time>2024-11-15T20:06:38Z</time>
      </trkpt>
      <trkpt lat="45.72586" lon="4.79263">
        <ele>239</ele>
        <time>2024-11-15T20:06:46Z</time>
      </trkpt>
      <trkpt lat="45.72589" lon="4.793">
        <ele>239</ele>
        <time>2024-11-15T20:06:59Z</time>
      </trkpt>
      <trkpt lat="45.7258" lon="4.79295">
        <ele>237</ele>
        <time>2024-11-15T20:07:04Z</time>
      </trkpt>
      <trkpt lat="45.7257" lon="4.79272">
        <ele>234</ele>
        <time>2024-11-15T20:07:13Z</time>
      </trkpt>
      <trkpt lat="45.72571" lon="4.7924">
        <ele>234</ele>
        <time>2024-11-15T20:07:25Z</time>
      </trkpt>
      <trkpt lat="45.7258" lon="4.79218">
        <ele>237</ele>
        <time>2024-11-15T20:07:33Z</time>
      </trkpt>
      <trkpt lat="45.72582" lon="4.79179">
        <ele>238</ele>
        <time>2024-11-15T20:07:47Z</time>
      </trkpt>
      <trkpt lat="45.72572" lon="4.79141">
        <ele>235</ele>
        <time>2024-11-15T20:08:01Z</time>
      </trkpt>
      <trkpt lat="45.72555" lon="4.79105">
        <ele>230</ele>
        <time>2024-11-15T20:08:16Z</time>
      </trkpt>
      <trkpt lat="45.72551" lon="4.79106">
        <ele>229</ele>
        <time>2024-11-15T20:08:19Z</time>
      </trkpt>
      <trkpt lat="45.7255" lon="4.79114">
        <ele>228</ele>
        <time>2024-11-15T20:08:21Z</time>
      </trkpt>
      <trkpt lat="45.72558" lon="4.79135">
        <ele>231</ele>
        <time>2024-11-15T20:08:30Z</time>
      </trkpt>
      <trkpt lat="45.72563" lon="4.79159">
        <ele>231</ele>
        <time>2024-11-15T20:08:38Z</time>
      </trkpt>
      <trkpt lat="45.72556" lon="4.79181">
        <ele>229</ele>
        <time>2024-11-15T20:08:47Z</time>
      </trkpt>
      <trkpt lat="45.72546" lon="4.79275">
        <ele>226</ele>
        <time>2024-11-15T20:09:20Z</time>
      </trkpt>
      <trkpt lat="45.72553" lon="4.79325">
        <ele>229</ele>
        <time>2024-11-15T20:09:38Z</time>
      </trkpt>
      <trkpt lat="45.72552" lon="4.7934">
        <ele>229</ele>
        <time>2024-11-15T20:09:43Z</time>
      </trkpt>
      <trkpt lat="45.72537" lon="4.79371">
        <ele>225</ele>
        <time>2024-11-15T20:09:56Z</time>
      </trkpt>
      <trkpt lat="45.72548" lon="4.79386">
        <ele>229</ele>
        <time>2024-11-15T20:10:04Z</time>
      </trkpt>
      <trkpt lat="45.72554" lon="4.79436">
        <ele>231</ele>
        <time>2024-11-15T20:10:22Z</time>
      </trkpt>
      <trkpt lat="45.72563" lon="4.79457">
        <ele>234</ele>
        <time>2024-11-15T20:10:30Z</time>
      </trkpt>
      <trkpt lat="45.72588" lon="4.79478">
        <ele>241</ele>
        <time>2024-11-15T20:10:45Z</time>
      </trkpt>
      <trkpt lat="45.72608" lon="4.79564">
        <ele>246</ele>
        <time>2024-11-15T20:11:16Z</time>
      </trkpt>
      <trkpt lat="45.72628" lon="4.79621">
        <ele>252</ele>
        <time>2024-11-15T20:11:39Z</time>
      </trkpt>
      <trkpt lat="45.72637" lon="4.79655">
        <ele>255</ele>
        <time>2024-11-15T20:11:51Z</time>
      </trkpt>
      <trkpt lat="45.72639" lon="4.79717">
        <ele>258</ele>
        <time>2024-11-15T20:12:13Z</time>
      </trkpt>
      <trkpt lat="45.72617" lon="4.79714">
        <ele>254</ele>
        <time>2024-11-15T20:12:24Z</time>
      </trkpt>
      <trkpt lat="45.7261" lon="4.79716">
        <ele>253</ele>
        <time>2024-11-15T20:12:28Z</time>
      </trkpt>
      <trkpt lat="45.72607" lon="4.79727">
        <ele>253</ele>
        <time>2024-11-15T20:12:32Z</time>
      </trkpt>
      <trkpt lat="45.7262" lon="4.79886">
        <ele>251</ele>
        <time>2024-11-15T20:13:28Z</time>
      </trkpt>
      <trkpt lat="45.72625" lon="4.79917">
        <ele>250</ele>
        <time>2024-11-15T20:13:39Z</time>
      </trkpt>
      <trkpt lat="45.72629" lon="4.80003">
        <ele>251</ele>
        <time>2024-11-15T20:14:09Z</time>
      </trkpt>
      <trkpt lat="45.72642" lon="4.80049">
        <ele>251</ele>
        <time>2024-11-15T20:14:26Z</time>
      </trkpt>
      <trkpt lat="45.72668" lon="4.80109">
        <ele>252</ele>
        <time>2024-11-15T20:14:51Z</time>
      </trkpt>
      <trkpt lat="45.7267" lon="4.80122">
        <ele>252</ele>
        <time>2024-11-15T20:14:56Z</time>
      </trkpt>
      <trkpt lat="45.72646" lon="4.80255">
        <ele>247</ele>
        <time>2024-11-15T20:15:44Z</time>
      </trkpt>
      <trkpt lat="45.72638" lon="4.80315">
        <ele>244</ele>
        <time>2024-11-15T20:16:05Z</time>
      </trkpt>
      <trkpt lat="45.7262" lon="4.80386">
        <ele>236</ele>
        <time>2024-11-15T20:16:31Z</time>
      </trkpt>
      <trkpt lat="45.72602" lon="4.80439">
        <ele>230</ele>
        <time>2024-11-15T20:16:52Z</time>
      </trkpt>
      <trkpt lat="45.72589" lon="4.80429">
        <ele>228</ele>
        <time>2024-11-15T20:16:59Z</time>
      </trkpt>
      <trkpt lat="45.72603" lon="4.80477">
        <ele>228</ele>
        <time>2024-11-15T20:17:18Z</time>
      </trkpt>
      <trkpt lat="45.72597" lon="4.80527">
        <ele>227</ele>
        <time>2024-11-15T20:17:35Z</time>
      </trkpt>
      <trkpt lat="45.72621" lon="4.80549">
        <ele>228</ele>
        <time>2024-11-15T20:17:50Z</time>
      </trkpt>
      <trkpt lat="45.72626" lon="4.80558">
        <ele>228</ele>
        <time>2024-11-15T20:17:54Z</time>
      </trkpt>
      <trkpt lat="45.72621" lon="4.80591">
        <ele>228</ele>
        <time>2024-11-15T20:18:05Z</time>
      </trkpt>
      <trkpt lat="45.72627" lon="4.8061">
        <ele>229</ele>
        <time>2024-11-15T20:18:13Z</time>
      </trkpt>
      <trkpt lat="45.72628" lon="4.80643">
        <ele>231</ele>
        <time>2024-11-15T20:18:24Z</time>
      </trkpt>
      <trkpt lat="45.72564" lon="4.80691">
        <ele>233</ele>
        <time>2024-11-15T20:19:00Z</time>
      </trkpt>
      <trkpt lat="45.72521" lon="4.80716">
        <ele>233</ele>
        <time>2024-11-15T20:19:24Z</time>
      </trkpt>
      <trkpt lat="45.72533" lon="4.80746">
        <ele>235</ele>
        <time>2024-11-15T20:19:36Z</time>
      </trkpt>
      <trkpt lat="45.72554" lon="4.80776">
        <ele>237</ele>
        <time>2024-11-15T20:19:50Z</time>
      </trkpt>
      <trkpt lat="45.72571" lon="4.80789">
        <ele>238</ele>
        <time>2024-11-15T20:20:00Z</time>
      </trkpt>
      <trkpt lat="45.72592" lon="4.80824">
        <ele>239</ele>
        <time>2024-11-15T20:20:16Z</time>
      </trkpt>
      <trkpt lat="45.72611" lon="4.80846">
        <ele>238</ele>
        <time>2024-11-15T20:20:28Z</time>
      </trkpt>
      <trkpt lat="45.72646" lon="4.80911">
        <ele>235</ele>
        <time>2024-11-15T20:20:57Z</time>
      </trkpt>
      <trkpt lat="45.72661" lon="4.80927">
        <ele>234</ele>
        <time>2024-11-15T20:21:07Z</time>
      </trkpt>
      <trkpt lat="45.72677" lon="4.80933">
        <ele>234</ele>
        <time>2024-11-15T20:21:15Z</time>
      </trkpt>
      <trkpt lat="45.72701" lon="4.80934">
        <ele>236</ele>
        <time>2024-11-15T20:21:27Z</time>
      </trkpt>
      <trkpt lat="45.72737" lon="4.80926">
        <ele>240</ele>
        <time>2024-11-15T20:21:45Z</time>
      </trkpt>
      <trkpt lat="45.72743" lon="4.80927">
        <ele>240</ele>
        <time>2024-11-15T20:21:48Z</time>
      </trkpt>
      <trkpt lat="45.72754" lon="4.80922">
        <ele>241</ele>
        <time>2024-11-15T20:21:54Z</time>
      </trkpt>
      <trkpt lat="45.72811" lon="4.80966">
        <ele>241</ele>
        <time>2024-11-15T20:22:26Z</time>
      </trkpt>
      <trkpt lat="45.72834" lon="4.8101">
        <ele>243</ele>
        <time>2024-11-15T20:22:45Z</time>
      </trkpt>
      <trkpt lat="45.72848" lon="4.81026">
        <ele>243</ele>
        <time>2024-11-15T20:22:54Z</time>
      </trkpt>
      <trkpt lat="45.72873" lon="4.81032">
        <ele>243</ele>
        <time>2024-11-15T20:23:07Z</time>
      </trkpt>
      <trkpt lat="45.72902" lon="4.81034">
        <ele>243</ele>
        <time>2024-11-15T20:23:22Z</time>
      </trkpt>
      <trkpt lat="45.72947" lon="4.81133">
        <ele>237</ele>
        <time>2024-11-15T20:24:03Z</time>
      </trkpt>
      <trkpt lat="45.72949" lon="4.81145">
        <ele>237</ele>
        <time>2024-11-15T20:24:07Z</time>
      </trkpt>
      <trkpt lat="45.72993" lon="4.81248">
        <ele>225</ele>
        <time>2024-11-15T20:24:49Z</time>
      </trkpt>
      <trkpt lat="45.72995" lon="4.81257">
        <ele>224</ele>
        <time>2024-11-15T20:24:53Z</time>
      </trkpt>
      <trkpt lat="45.72991" lon="4.81257">
        <ele>224</ele>
        <time>2024-11-15T20:24:55Z</time>
      </trkpt>
      <trkpt lat="45.72992" lon="4.81278">
        <ele>221</ele>
        <time>2024-11-15T20:25:02Z</time>
      </trkpt>
      <trkpt lat="45.73007" lon="4.81339">
        <ele>211</ele>
        <time>2024-11-15T20:25:25Z</time>
      </trkpt>
      <trkpt lat="45.73034" lon="4.81367">
        <ele>199</ele>
        <time>2024-11-15T20:25:41Z</time>
      </trkpt>
      <trkpt lat="45.73076" lon="4.81448">
        <ele>174</ele>
        <time>2024-11-15T20:26:17Z</time>
      </trkpt>
      <trkpt lat="45.73125" lon="4.81374">
        <ele>181</ele>
        <time>2024-11-15T20:26:52Z</time>
      </trkpt>
      <trkpt lat="45.73148" lon="4.81353">
        <ele>183</ele>
        <time>2024-11-15T20:27:06Z</time>
      </trkpt>
      <trkpt lat="45.73236" lon="4.81315">
        <ele>180</ele>
        <time>2024-11-15T20:27:52Z</time>
      </trkpt>
      <trkpt lat="45.73236" lon="4.81312">
        <ele>180</ele>
        <time>2024-11-15T20:27:53Z</time>
      </trkpt>
      <trkpt lat="45.73248" lon="4.81309">
        <ele>180</ele>
        <time>2024-11-15T20:27:59Z</time>
      </trkpt>
      <trkpt lat="45.73245" lon="4.81318">
        <ele>178</ele>
        <time>2024-11-15T20:28:02Z</time>
      </trkpt>
      <trkpt lat="45.73138" lon="4.81374">
        <ele>179</ele>
        <time>2024-11-15T20:28:59Z</time>
      </trkpt>
      <trkpt lat="45.73122" lon="4.81401">
        <ele>175</ele>
        <time>2024-11-15T20:29:12Z</time>
      </trkpt>
      <trkpt lat="45.73047" lon="4.81553">
        <ele>168</ele>
        <time>2024-11-15T20:30:17Z</time>
      </trkpt>
      <trkpt lat="45.73035" lon="4.81567">
        <ele>167</ele>
        <time>2024-11-15T20:30:25Z</time>
      </trkpt>
      <trkpt lat="45.73016" lon="4.81582">
        <ele>166</ele>
        <time>2024-11-15T20:30:35Z</time>
      </trkpt>
      <trkpt lat="45.73015" lon="4.81578">
        <ele>166</ele>
        <time>2024-11-15T20:30:37Z</time>
      </trkpt>
      <trkpt lat="45.73033" lon="4.81564">
        <ele>167</ele>
        <time>2024-11-15T20:30:47Z</time>
      </trkpt>
      <trkpt lat="45.73055" lon="4.81562">
        <ele>167</ele>
        <time>2024-11-15T20:30:58Z</time>
      </trkpt>
      <trkpt lat="45.73077" lon="4.81571">
        <ele>165</ele>
        <time>2024-11-15T20:31:10Z</time>
      </trkpt>
      <trkpt lat="45.73188" lon="4.81665">
        <ele>166</ele>
        <time>2024-11-15T20:32:14Z</time>
      </trkpt>
      <trkpt lat="45.73203" lon="4.8168">
        <ele>167</ele>
        <time>2024-11-15T20:32:23Z</time>
      </trkpt>
      <trkpt lat="45.73204" lon="4.81685">
        <ele>167</ele>
        <time>2024-11-15T20:32:25Z</time>
      </trkpt>
      <trkpt lat="45.73225" lon="4.81711">
        <ele>168</ele>
        <time>2024-11-15T20:32:39Z</time>
      </trkpt>
      <trkpt lat="45.73248" lon="4.81732">
        <ele>169</ele>
        <time>2024-11-15T20:32:53Z</time>
      </trkpt>
      <trkpt lat="45.73265" lon="4.81753">
        <ele>169</ele>
        <time>2024-11-15T20:33:04Z</time>
      </trkpt>
      <trkpt lat="45.73321" lon="4.818">
        <ele>168</ele>
        <time>2024-11-15T20:33:36Z</time>
      </trkpt>
      <trkpt lat="45.73334" lon="4.81815">
        <ele>168</ele>
        <time>2024-11-15T20:33:45Z</time>
      </trkpt>
      <trkpt lat="45.73338" lon="4.81825">
        <ele>168</ele>
        <time>2024-11-15T20:33:49Z</time>
      </trkpt>
      <trkpt lat="45.73349" lon="4.81841">
        <ele>168</ele>
        <time>2024-11-15T20:33:57Z</time>
      </trkpt>
      <trkpt lat="45.73365" lon="4.81851">
        <ele>168</ele>
        <time>2024-11-15T20:34:05Z</time>
      </trkpt>
      <trkpt lat="45.73336" lon="4.8195">
        <ele>165</ele>
        <time>2024-11-15T20:34:43Z</time>
      </trkpt>
      <trkpt lat="45.73198" lon="4.82124">
        <ele>165</ele>
        <time>2024-11-15T20:36:15Z</time>
      </trkpt>
      <trkpt lat="45.73191" lon="4.82137">
        <ele>165</ele>
        <time>2024-11-15T20:36:21Z</time>
      </trkpt>
      <trkpt lat="45.73182" lon="4.82168">
        <ele>166</ele>
        <time>2024-11-15T20:36:32Z</time>
      </trkpt>
      <trkpt lat="45.73173" lon="4.82234">
        <ele>167</ele>
        <time>2024-11-15T20:36:56Z</time>
      </trkpt>
      <trkpt lat="45.73163" lon="4.82273">
        <ele>167</ele>
        <time>2024-11-15T20:37:10Z</time>
      </trkpt>
      <trkpt lat="45.73056" lon="4.82249">
        <ele>167</ele>
        <time>2024-11-15T20:38:05Z</time>
      </trkpt>
      <trkpt lat="45.73001" lon="4.82234">
        <ele>165</ele>
        <time>2024-11-15T20:38:33Z</time>
      </trkpt>
      <trkpt lat="45.72991" lon="4.82226">
        <ele>166</ele>
        <time>2024-11-15T20:38:38Z</time>
      </trkpt>
      <trkpt lat="45.72913" lon="4.82144">
        <ele>165</ele>
        <time>2024-11-15T20:39:27Z</time>
      </trkpt>
      <trkpt lat="45.72903" lon="4.82155">
        <ele>166</ele>
        <time>2024-11-15T20:39:33Z</time>
      </trkpt>
      <trkpt lat="45.72902" lon="4.82286">
        <ele>167</ele>
        <time>2024-11-15T20:40:19Z</time>
      </trkpt>
      <trkpt lat="45.72884" lon="4.82288">
        <ele>167</ele>
        <time>2024-11-15T20:40:28Z</time>
      </trkpt>
      <trkpt lat="45.7288" lon="4.82365">
        <ele>166</ele>
        <time>2024-11-15T20:40:55Z</time>
      </trkpt>
      <trkpt lat="45.72971" lon="4.82374">
        <ele>168</ele>
        <time>2024-11-15T20:41:40Z</time>
      </trkpt>
      <trkpt lat="45.72971" lon="4.82415">
        <ele>169</ele>
        <time>2024-11-15T20:41:55Z</time>
      </trkpt>
      <trkpt lat="45.72997" lon="4.82419">
        <ele>170</ele>
        <time>2024-11-15T20:42:08Z</time>
      </trkpt>
      <trkpt lat="45.72996" lon="4.82503">
        <ele>175</ele>
        <time>2024-11-15T20:42:37Z</time>
      </trkpt>
    </trkseg>
  </trk>
</gpx>